Flight Track Log - Related Links

Times and Time Zones

All times are in EDT time to prevent confusion due to time zone crossing. See the DAL268 flight status page for this flight to view local times or setup timezone preferences in your user account.

Time Position Orientation Groundspeed Altitude Reporting Facility
EDT Latitude Longitude Course Direction KTS MPH feet Rate Location/Type
Sun 11:55:55 PM 40.6430 -73.8200 302° West 179 206  Level FlightAware ADS-B
Sun 11:56:05 PM 40.6440 -73.8310 277° West 182 209 200 1,200 Climbing FlightAware ADS-B
Sun 11:56:25 PM 40.6380 -73.8510 248° West 187 215 600 1,371 Climbing FlightAware ADS-B
Sun 11:56:40 PM 40.6280 -73.8630 222° Southwest 194 223 1,000 1,200 Climbing FlightAware ADS-B
Sun 11:57:05 PM 40.6080 -73.8790 211° Southwest 221 254 1,400 900 Climbing FlightAware ADS-B
Sun 11:57:20 PM 40.5920 -73.8820 188° South 234 269 1,600 1,000 Climbing FlightAware ADS-B
Sun 11:57:35 PM 40.5750 -73.8770 167° South 250 288 1,900 1,200 Climbing FlightAware ADS-B
Sun 11:57:50 PM 40.5610 -73.8650 147° Southeast 257 296 2,200 1,800 Climbing FlightAware ADS-B
Sun 11:58:05 PM 40.5480 -73.8450 131° Southeast 263 303 2,800 2,400 Climbing FlightAware ADS-B
Sun 11:58:30 PM 40.5400 -73.8080 106° East 265 305 3,800 2,516 Climbing FlightAware ADS-B
Sun 11:58:36 PM 40.5406 -73.7966 86° East 265 305 4,100 2,000 Climbing FlightAware ADS-B
Sun 11:58:39 PM 40.5414 -73.7916 78° East 265 305 4,100 1,000 Level FlightAware ADS-B
Sun 11:58:42 PM 40.5427 -73.7871 69° East 265 305 4,200 1,000 Climbing FlightAware ADS-B
Sun 11:58:45 PM 40.5441 -73.7825 68° East 266 306 4,200 750 Level FlightAware ADS-B
Sun 11:58:50 PM 40.5472 -73.7759 58° Northeast 269 310 4,300 2,182 Climbing FlightAware ADS-B
Sun 11:58:56 PM 40.5521 -73.7681 50° Northeast 270 311 4,600 2,857 Climbing FlightAware ADS-B
Sun 11:59:11 PM 40.5651 -73.7505 46° Northeast 272 313 5,300 2,769 Climbing FlightAware ADS-B
Sun 11:59:22 PM 40.5751 -73.7376 44° Northeast 274 315 5,800 2,667 Climbing FlightAware ADS-B
Sun 11:59:38 PM 40.5902 -73.7192 43° Northeast 280 322 6,500 2,471 Climbing FlightAware ADS-B
Sun 11:59:56 PM 40.6083 -73.6967 43° Northeast 283 326 7,200 2,294 Climbing FlightAware ADS-B
Mon 12:00:12 AM 40.6238 -73.6769 44° Northeast 292 336 7,800 2,323 Climbing FlightAware ADS-B
Mon 12:00:27 AM 40.6384 -73.6580 44° Northeast 298 343 8,400 2,364 Climbing FlightAware ADS-B
Mon 12:00:45 AM 40.6560 -73.6349 45° Northeast 304 350 9,100 2,294 Climbing FlightAware ADS-B
Mon 12:01:01 AM 40.6719 -73.6137 45° Northeast 311 358 9,700 1,263 Climbing FlightAware ADS-B
Mon 12:02:01 AM 40.7381 -73.5242 46° Northeast 325 374 10,700 1,212 Climbing FlightAware ADS-B
Mon 12:02:40 AM 40.7840 -73.4610 46° Northeast 398 458 11,700 1,920 Climbing FlightAware ADS-B
Mon 12:03:16 AM 40.8429 -73.4050 36° Northeast 397 457 13,100 2,314 Climbing FlightAware ADS-B
Mon 12:03:50 AM 40.9032 -73.3714 23° Northeast 397 457 14,400 2,229 Climbing FlightAware ADS-B
Mon 12:04:26 AM 40.9681 -73.3378 21° North 426 490 15,700 2,118 Climbing FlightAware ADS-B
Mon 12:04:58 AM 41.0266 -73.3078 21° North 434 499 16,800 2,032 Climbing FlightAware ADS-B
Mon 12:05:28 AM 41.0834 -73.2784 21° North 440 506 17,800 1,900 Climbing FlightAware ADS-B
Mon 12:05:58 AM 41.1413 -73.2482 21° North 448 516 18,700 1,869 Climbing FlightAware ADS-B
Mon 12:06:29 AM 41.2028 -73.2164 21° North 454 522 19,700 1,714 Climbing FlightAware ADS-B
Mon 12:07:01 AM 41.2649 -73.1843 21° North 462 532 20,500 1,500 Climbing FlightAware ADS-B
Mon 12:07:33 AM 41.3289 -73.1506 22° Northeast 471 542 21,300 1,448 Climbing FlightAware ADS-B
Mon 12:07:59 AM 41.3767 -73.1054 35° Northeast 481 554 21,900 1,317 Climbing FlightAware ADS-B
Mon 12:08:14 AM 41.3980 -73.0708 51° Northeast 488 562 22,200 1,304 Climbing FlightAware ADS-B
Mon 12:08:45 AM 41.4344 -72.9909 59° Northeast 497 572 22,900 1,377 Climbing FlightAware ADS-B
Mon 12:09:15 AM 41.4699 -72.9098 60° Northeast 502 578 23,600 1,200 Climbing FlightAware ADS-B
Mon 12:10:15 AM 41.5360 -72.7600 59° Northeast 513 590 24,700 1,056 Climbing FlightAware ADS-B
Mon 12:11:20 AM 41.6370 -72.5890 52° Northeast 524 603 25,800 1,000 Climbing FlightAware ADS-B
Mon 12:12:15 AM 41.7170 -72.4670 49° Northeast 539 620 26,700 1,020 Climbing FlightAware ADS-B
Mon 12:13:00 AM 41.7980 -72.3430 49° Northeast 544 626 27,500 1,059 Climbing FlightAware ADS-B
Mon 12:13:40 AM 41.8650 -72.2400 49° Northeast 555 639 28,200 1,129 Climbing FlightAware ADS-B
Mon 12:14:25 AM 41.9440 -72.1210 48° Northeast 559 643 29,100 1,200 Climbing FlightAware ADS-B
Mon 12:15:05 AM 42.0120 -72.0170 49° Northeast 560 644 29,900 1,200 Climbing FlightAware ADS-B
Mon 12:15:45 AM 42.0810 -71.9100 49° Northeast 562 647 30,700 1,129 Climbing FlightAware ADS-B
Mon 12:16:30 AM 42.1600 -71.7880 49° Northeast 563 648 31,500 1,129 Climbing FlightAware ADS-B
Mon 12:17:10 AM 42.2290 -71.6800 49° Northeast 562 647 32,300 1,059 Climbing FlightAware ADS-B
Mon 12:17:55 AM 42.3020 -71.5630 50° Northeast 562 647 33,000 494 Climbing FlightAware ADS-B
Mon 12:18:35 AM 42.3700 -71.4570 49° Northeast 564 649 33,000  Level FlightAware ADS-B
Mon 12:19:15 AM 42.4380 -71.3490 50° Northeast 566 651 33,000  Level FlightAware ADS-B
Mon 12:20:00 AM 42.5150 -71.2260 50° Northeast 567 652 33,000 -71 Level FlightAware ADS-B
Mon 12:20:40 AM 42.5850 -71.1150 49° Northeast 569 655 32,900 -71 Descending FlightAware ADS-B
Mon 12:21:25 AM 42.6610 -70.9920 50° Northeast 569 655 32,900  Level FlightAware ADS-B
Mon 12:22:05 AM 42.7260 -70.8870 50° Northeast 570 656 32,900  Level FlightAware ADS-B
Mon 12:22:45 AM 42.7950 -70.7760 50° Northeast 571 657 32,900  Level FlightAware ADS-B
Mon 12:23:30 AM 42.8720 -70.6490 50° Northeast 571 657 32,900  Level FlightAware ADS-B
Mon 12:24:10 AM 42.9410 -70.5380 50° Northeast 572 658 32,900  Level FlightAware ADS-B
Mon 12:24:45 AM 42.9940 -70.4510 50° Northeast 573 659 32,900 71 Level FlightAware ADS-B
Mon 12:25:35 AM 43.0830 -70.3040 50° Northeast 573 659 33,000  Climbing FlightAware ADS-B
Mon 12:26:15 AM 43.1480 -70.1970 50° Northeast 568 654 32,900 -71 Descending FlightAware ADS-B
Mon 12:27:00 AM 43.2250 -70.0710 50° Northeast 567 652 32,900  Level FlightAware ADS-B
Mon 12:27:40 AM 43.2950 -69.9540 51° Northeast 566 651 32,900  Level FlightAware ADS-B
Mon 12:28:25 AM 43.3680 -69.8340 50° Northeast 563 648 32,900  Level FlightAware ADS-B
Mon 12:29:05 AM 43.4360 -69.7200 51° Northeast 562 647 32,900  Level FlightAware ADS-B
Mon 12:29:45 AM 43.5030 -69.6070 51° Northeast 566 651 32,900  Level FlightAware ADS-B
Mon 12:30:20 AM 43.5580 -69.5150 50° Northeast 566 651 32,900  Level FlightAware ADS-B
Mon 12:31:10 AM 43.6440 -69.3670 51° Northeast 566 651 32,900  Level FlightAware ADS-B
Mon 12:32:10 AM 43.7390 -69.2050 51° Northeast 565 650 32,900  Level FlightAware ADS-B
Mon 12:32:45 AM 43.7940 -69.1100 51° Northeast 564 649 32,900  Level FlightAware ADS-B
Mon 12:33:30 AM 43.8660 -68.9850 51° Northeast 563 648 32,900  Level FlightAware ADS-B
Mon 12:34:25 AM 43.9580 -68.8260 51° Northeast 562 647 32,900  Level FlightAware ADS-B
Mon 12:35:05 AM 44.0140 -68.7310 51° Northeast 562 647 32,900  Level FlightAware ADS-B
Mon 12:35:50 AM 44.1000 -68.5800 52° Northeast 564 649 32,900  Level FlightAware ADS-B
Mon 12:36:35 AM 44.1760 -68.4480 51° Northeast 564 649 32,900  Level FlightAware ADS-B
Mon 12:37:15 AM 44.2410 -68.3340 51° Northeast 563 648 32,900  Level FlightAware ADS-B
Mon 12:37:55 AM 44.3000 -68.2300 52° Northeast 562 647 32,900  Level FlightAware ADS-B
Mon 12:38:40 AM 44.3780 -68.0920 52° Northeast 561 646 32,900  Level FlightAware ADS-B
Mon 12:39:20 AM 44.4420 -67.9790 52° Northeast 561 646 32,900  Level FlightAware ADS-B
Mon 12:40:05 AM 44.5160 -67.8470 52° Northeast 562 647 32,900  Level FlightAware ADS-B
Mon 12:40:45 AM 44.5790 -67.7350 52° Northeast 563 648 32,900  Level FlightAware ADS-B
Mon 12:41:25 AM 44.6440 -67.6180 52° Northeast 564 649 32,900  Level FlightAware ADS-B
Mon 12:42:10 AM 44.7140 -67.4920 52° Northeast 565 650 32,900  Level FlightAware ADS-B
Mon 12:42:50 AM 44.7780 -67.3750 52° Northeast 566 651 32,900  Level FlightAware ADS-B
Mon 12:43:35 AM 44.8500 -67.2450 52° Northeast 566 651 32,900  Level FlightAware ADS-B
Mon 12:44:15 AM 44.9180 -67.1290 50° Northeast 564 649 32,900  Level FlightAware ADS-B
Mon 12:44:55 AM 44.9850 -67.0320 46° Northeast 562 647 32,900  Level FlightAware ADS-B
Mon 12:45:40 AM 45.0750 -66.9070 44° Northeast 562 647 32,900  Level FlightAware ADS-B
Mon 12:46:20 AM 45.1480 -66.8060 44° Northeast 562 647 32,900  Level FlightAware ADS-B
Mon 12:47:05 AM 45.2280 -66.6940 45° Northeast 560 644 32,900  Level FlightAware ADS-B
Mon 12:47:45 AM 45.3070 -66.5830 45° Northeast 560 644 32,900  Level FlightAware ADS-B
Mon 12:48:25 AM 45.3810 -66.4780 45° Northeast 560 644 32,900  Level FlightAware ADS-B
Mon 12:49:10 AM 45.4620 -66.3630 45° Northeast 560 644 32,900  Level FlightAware ADS-B
Mon 12:49:50 AM 45.5350 -66.2590 45° Northeast 560 644 32,900  Level FlightAware ADS-B
Mon 12:50:35 AM 45.6180 -66.1400 45° Northeast 559 643 32,900  Level FlightAware ADS-B
Mon 12:51:15 AM 45.6910 -66.0360 45° Northeast 558 642 32,900  Level FlightAware ADS-B
Mon 12:51:55 AM 45.7550 -65.9420 46° Northeast 559 643 32,900  Level FlightAware ADS-B
Mon 12:52:40 AM 45.8390 -65.8190 46° Northeast 557 641 32,900  Level FlightAware ADS-B
Mon 12:53:20 AM 45.9160 -65.7070 45° Northeast 556 640 32,900  Level FlightAware ADS-B
Mon 12:54:05 AM 45.9950 -65.5910 46° Northeast 554 638 32,900  Level FlightAware ADS-B
Mon 12:54:40 AM 46.0540 -65.5040 46° Northeast 554 638 32,900  Level FlightAware ADS-B
Mon 12:55:25 AM 46.1360 -65.3830 46° Northeast 555 639 32,900  Level FlightAware ADS-B
Mon 12:56:20 AM 46.2320 -65.2400 46° Northeast 555 639 32,900  Level FlightAware ADS-B
Mon 12:57:00 AM 46.2930 -65.1490 46° Northeast 555 639 32,900  Level FlightAware ADS-B
Mon 12:57:40 AM 46.3530 -65.0580 46° Northeast 555 639 32,900  Level FlightAware ADS-B
Mon 12:58:30 AM 46.4290 -64.9450 46° Northeast 555 639 32,900  Level FlightAware ADS-B
Mon 12:59:10 AM 46.4900 -64.8530 46° Northeast 555 639 32,900  Level FlightAware ADS-B
Mon 12:59:50 AM 46.5500 -64.7620 46° Northeast 555 639 32,900  Level FlightAware ADS-B
Mon 01:00:30 AM 46.6110 -64.6710 46° Northeast 555 639 32,900  Level FlightAware ADS-B
Mon 01:01:10 AM 46.6710 -64.5790 46° Northeast 555 639 32,900  Level FlightAware ADS-B
Mon 01:02:00 AM 46.7470 -64.4650 46° Northeast 555 639 32,900  Level FlightAware ADS-B
Mon 01:02:40 AM 46.8080 -64.3730 46° Northeast 555 639 32,900  Level FlightAware ADS-B
Mon 01:03:20 AM 46.8690 -64.2810 46° Northeast 555 639 32,900  Level FlightAware ADS-B
Mon 01:04:00 AM 46.9290 -64.1890 46° Northeast 555 639 32,900  Level FlightAware ADS-B
Mon 01:04:40 AM 46.9900 -64.0970 46° Northeast 555 639 32,900  Level FlightAware ADS-B
Mon 01:05:30 AM 47.0660 -63.9820 46° Northeast 555 639 32,900  Level FlightAware ADS-B
Mon 01:05:57 AM 47.2500 -63.6500 46° Northeast 560 644 32,900  Level Moncton Center
Mon 01:06:57 AM 47.3500 -63.4833 48° Northeast 560 644 32,900  Level Moncton Center
Mon 01:07:57 AM 47.4667 -63.3000 47° Northeast 560 644 32,900  Level Moncton Center
Mon 01:08:57 AM 47.5667 -63.1333 48° Northeast 560 644 32,900  Level Moncton Center
Mon 01:09:57 AM 47.6500 -62.9833 50° Northeast 560 644 32,900  Level Moncton Center
Mon 01:10:57 AM 47.7667 -62.8000 47° Northeast 560 644 32,900  Level Moncton Center
Mon 01:11:57 AM 47.8667 -62.6333 48° Northeast 560 644 32,900  Level Moncton Center
Mon 01:12:26 AM 47.9167 -62.5500 48° Northeast 560 644 32,900  Level Gander Center
Mon 01:13:26 AM 48.0333 -62.3833 44° Northeast 560 644 32,900  Level Gander Center
Mon 01:13:57 AM 48.0833 -62.2667 57° Northeast 560 644 32,900  Level Moncton Center
Mon 01:14:57 AM 48.1833 -62.1167 45° Northeast 560 644 32,900  Level Moncton Center
Mon 01:15:57 AM 48.2833 -61.9333 51° Northeast 560 644 32,900  Level Moncton Center
Mon 01:16:26 AM 48.3333 -61.8333 53° Northeast 570 656 32,900  Level Gander Center
Mon 01:16:57 AM 48.3833 -61.7500 48° Northeast 570 656 32,900  Level Moncton Center
Mon 01:17:57 AM 48.4833 -61.5667 51° Northeast 560 644 32,900  Level Moncton Center
Mon 01:18:57 AM 48.6000 -61.3833 46° Northeast 570 656 32,900  Level Moncton Center
Mon 01:19:26 AM 48.6500 -61.3000 48° Northeast 560 644 32,900  Level Gander Center
Mon 01:20:26 AM 48.7500 -61.1333 48° Northeast 570 656 32,900  Level Gander Center
Mon 01:20:57 AM 48.8000 -61.0333 53° Northeast 560 644 32,900  Level Moncton Center
Mon 01:21:57 AM 48.9167 -60.8333 48° Northeast 570 656 32,900  Level Moncton Center
Mon 01:22:26 AM 48.9667 -60.7500 48° Northeast 570 656 32,900  Level Gander Center
Mon 01:23:26 AM 49.0667 -60.5667 50° Northeast 570 656 32,900  Level Gander Center
Mon 01:23:57 AM 49.1167 -60.4833 47° Northeast 560 644 32,900  Level Moncton Center
Mon 01:24:26 AM 49.1667 -60.3833 53° Northeast 560 644 32,900  Level Gander Center
Mon 01:24:57 AM 49.2167 -60.3000 47° Northeast 560 644 32,900  Level Moncton Center
Mon 01:25:57 AM 49.3167 -60.1000 52° Northeast 570 656 32,900  Level Moncton Center
Mon 01:26:57 AM 49.4167 -59.9167 50° Northeast 560 644 32,900  Level Moncton Center
Mon 01:27:26 AM 49.4833 -59.8333 39° Northeast 560 644 32,900  Level Gander Center
Mon 01:28:26 AM 49.5667 -59.6500 55° Northeast 560 644 32,900  Level Gander Center
Mon 01:28:57 AM 49.6167 -59.5333 56° Northeast 560 644 32,900  Level Moncton Center
Mon 01:29:57 AM 49.7167 -59.3667 47° Northeast 560 644 32,900  Level Moncton Center
Mon 01:30:26 AM 49.7667 -59.2833 47° Northeast 560 644 32,900  Level Gander Center
Mon 01:31:26 AM 49.8667 -59.1000 50° Northeast 560 644 32,900  Level Gander Center
Mon 01:32:26 AM 49.9667 -58.8833 54° Northeast 560 644 32,900  Level Gander Center
Mon 01:32:57 AM 50.0167 -58.8000 47° Northeast 560 644 32,900  Level Moncton Center
Mon 01:33:57 AM 50.1000 -58.6000 57° Northeast 570 656 32,900  Level Moncton Center
Mon 01:34:23 AM 50.1333 -58.5167 58° Northeast 570 656 32,900  Level Gander Center
Mon 01:34:57 AM 50.2000 -58.4000 48° Northeast 560 644 32,900  Level Moncton Center
Mon 01:35:26 AM 50.2333 -58.3000 62° Northeast 560 644 32,900  Level Gander Center
Mon 01:35:57 AM 50.2833 -58.2167 47° Northeast 570 656 32,900  Level Moncton Center
Mon 01:36:26 AM 50.3333 -58.1167 52° Northeast 570 656 32,900  Level Gander Center
Mon 01:37:26 AM 50.4167 -57.9000 59° Northeast 570 656 32,900  Level Gander Center
Mon 01:38:26 AM 50.5000 -57.6833 59° Northeast 560 644 32,900  Level Gander Center
Mon 01:39:26 AM 50.6000 -57.4833 52° Northeast 570 656 32,900  Level Gander Center
Mon 01:39:57 AM 50.6333 -57.3667 66° East 560 644 32,900  Level Moncton Center
Mon 01:40:57 AM 50.7333 -57.1667 52° Northeast 580 667 32,900  Level Moncton Center
Mon 01:41:26 AM 50.7667 -57.0833 58° Northeast 570 656 32,900  Level Gander Center
Mon 01:42:26 AM 50.8500 -56.8333 62° Northeast 570 656 32,900  Level Gander Center
Mon 01:43:26 AM 50.9333 -56.6333 56° Northeast 570 656 32,900  Level Gander Center
Mon 01:44:23 AM 51.0167 -56.4333 56° Northeast 580 667 32,900  Level Gander Center
Mon 01:45:23 AM 51.1167 -56.2167 54° Northeast 570 656 32,900  Level Gander Center
Mon 01:46:23 AM 51.2000 -56.0000 58° Northeast 580 667 32,900  Level Gander Center
Mon 01:47:23 AM 51.2833 -55.8000 56° Northeast 570 656 32,900  Level Gander Center
Mon 01:48:23 AM 51.3667 -55.5667 60° Northeast 570 656 32,900  Level Gander Center
Mon 01:49:23 AM 51.4500 -55.3500 58° Northeast 580 667 32,900  Level Gander Center
Mon 01:50:23 AM 51.5500 -55.1167 55° Northeast 570 656 32,900 50 Level Gander Center
Mon 01:51:23 AM 51.6167 -54.9167 62° Northeast 570 656 33,000 200 Climbing Gander Center
Mon 01:52:23 AM 51.6833 -54.7000 64° Northeast 570 656 33,300 300 Climbing Gander Center
Mon 01:53:23 AM 51.7833 -54.4833 53° Northeast 570 656 33,600 300 Climbing Gander Center
Mon 01:54:23 AM 51.8667 -54.2667 58° Northeast 570 656 33,900 150 Climbing Gander Center
Mon 01:55:23 AM 51.9500 -54.0333 60° Northeast 580 667 33,900  Level Gander Center
Mon 01:56:23 AM 52.0167 -53.8000 65° Northeast 580 667 33,900  Level Gander Center
Mon 01:57:23 AM 52.1167 -53.6000 51° Northeast 570 656 33,900  Level Gander Center
Mon 01:58:23 AM 52.2000 -53.3667 60° Northeast 590 679 33,900  Level Gander Center
Mon 01:59:23 AM 52.2667 -53.1333 65° Northeast 570 656 33,900  Level Gander Center
Mon 02:00:23 AM 52.3167 -52.8667 73° East 580 667 33,900  Level Gander Center
Mon 02:01:23 AM 52.3833 -52.6333 65° Northeast 580 667 33,900  Level Gander Center
Mon 02:02:23 AM 52.4333 -52.3833 72° East 590 679 33,900  Level Gander Center
Mon 02:03:23 AM 52.5000 -52.1167 68° East 590 679 33,900  Level Gander Center
Mon 02:05:37 AM 52.6167 -51.5667 71° East 490 564 33,900  Level Gander Center
Mon 02:06:37 AM 52.6833 -51.3000 67° East 590 679 33,900  Level Gander Center
Mon 02:07:37 AM 52.7333 -51.0333 73° East 590 679 33,900  Level Gander Center
Mon 02:08:37 AM 52.7833 -50.8000 70° East 590 679 33,900  Level Gander Center
Mon 02:09:37 AM 52.8333 -50.5500 72° East 590 679 33,900  Level Gander Center
Mon 02:10:37 AM 52.9167 -50.2667 64° Northeast 590 679 33,900  Level Gander Center
Mon 02:12:37 AM 52.9833 -49.8333 76° East 590 679 33,900 42 Level Gander Center
Mon 02:13:00 AM 53.0000 -50.0000 67° East 603 694 34,000 14 Climbing ETMS Enhanced Traffic Management System
Mon 02:20:00 AM 53.5618 -47.6580 69° East 603 694 34,000  Level FlightAware Transoceanic
Mon 02:21:00 AM 53.6213 -47.3940 69° East 603 694 34,000  Level FlightAware Transoceanic
Mon 02:22:00 AM 53.6803 -47.1292 70° East 603 694 34,000  Level FlightAware Transoceanic
Mon 02:23:00 AM 53.7387 -46.8638 70° East 603 694 34,000  Level FlightAware Transoceanic
Mon 02:24:00 AM 53.7965 -46.5976 70° East 603 694 34,000  Level FlightAware Transoceanic
Mon 02:25:00 AM 53.8537 -46.3306 70° East 603 694 34,000  Level FlightAware Transoceanic
Mon 02:26:00 AM 53.9103 -46.0629 70° East 603 694 34,000  Level FlightAware Transoceanic
Mon 02:27:00 AM 53.9663 -45.7946 71° East 603 694 34,000  Level FlightAware Transoceanic
Mon 02:28:00 AM 54.0218 -45.5254 71° East 603 694 34,000  Level FlightAware Transoceanic
Mon 02:29:00 AM 54.0766 -45.2556 71° East 603 694 34,000  Level FlightAware Transoceanic
Mon 02:30:00 AM 54.1308 -44.9851 71° East 603 694 34,000  Level FlightAware Transoceanic
Mon 02:31:00 AM 54.1844 -44.7138 71° East 603 694 34,000  Level FlightAware Transoceanic
Mon 02:32:00 AM 54.2374 -44.4419 72° East 603 694 34,000  Level FlightAware Transoceanic
Mon 02:33:00 AM 54.2898 -44.1693 72° East 603 694 34,000  Level FlightAware Transoceanic
Mon 02:34:00 AM 54.3415 -43.8959 72° East 603 694 34,000  Level FlightAware Transoceanic
Mon 02:35:00 AM 54.3927 -43.6219 72° East 603 694 34,000  Level FlightAware Transoceanic
Mon 02:36:00 AM 54.4432 -43.3472 73° East 603 694 34,000  Level FlightAware Transoceanic
Mon 02:37:00 AM 54.4931 -43.0719 73° East 603 694 34,000  Level FlightAware Transoceanic
Mon 02:38:00 AM 54.5424 -42.7958 73° East 603 694 34,000  Level FlightAware Transoceanic
Mon 02:39:00 AM 54.5910 -42.5191 73° East 603 694 34,000  Level FlightAware Transoceanic
Mon 02:40:00 AM 54.6390 -42.2418 73° East 603 694 34,000  Level FlightAware Transoceanic
Mon 02:41:00 AM 54.6864 -41.9638 74° East 603 694 34,000  Level FlightAware Transoceanic
Mon 02:42:00 AM 54.7331 -41.6851 74° East 603 694 34,000  Level FlightAware Transoceanic
Mon 02:43:00 AM 54.7792 -41.4058 74° East 603 694 34,000  Level FlightAware Transoceanic
Mon 02:44:00 AM 54.8247 -41.1259 74° East 603 694 34,000  Level FlightAware Transoceanic
Mon 02:45:00 AM 54.8695 -40.8453 75° East 603 694 34,000  Level FlightAware Transoceanic
Mon 02:46:00 AM 54.9136 -40.5642 75° East 603 694 34,000  Level FlightAware Transoceanic
Mon 02:47:00 AM 54.9571 -40.2824 75° East 603 694 34,000  Level FlightAware Transoceanic
Mon 02:48:00 AM 54.9954 -40.0308 75° East  Level FlightAware Approximate
Mon 02:49:00 AM 55.0331 -39.7787 75° East  Level FlightAware Approximate
Mon 02:49:00 AM 55.0000 -40.0000 76° East 626 720 34,000  Level ETMS Enhanced Traffic Management System
Mon 02:50:00 AM 55.0271 -39.8089 76° East  Level FlightAware Approximate
Mon 02:51:00 AM 55.0626 -39.5557 76° East  Level FlightAware Approximate
Mon 02:52:00 AM 55.0976 -39.3020 76° East  Level FlightAware Approximate
Mon 02:53:00 AM 55.1320 -39.0478 77° East  Level FlightAware Approximate
Mon 02:54:00 AM 55.1659 -38.7932 77° East  Level FlightAware Approximate
Mon 02:55:00 AM 55.3167 -37.6254 78° East 626 720 34,000  Level FlightAware Transoceanic
Mon 02:56:00 AM 55.3530 -37.3260 78° East 626 720 34,000  Level FlightAware Transoceanic
Mon 02:57:00 AM 55.3886 -37.0260 78° East 626 720 34,000  Level FlightAware Transoceanic
Mon 02:58:00 AM 55.4234 -36.7255 79° East 626 720 34,000  Level FlightAware Transoceanic
Mon 02:59:00 AM 55.4576 -36.4245 79° East 626 720 34,000  Level FlightAware Transoceanic
Mon 03:00:00 AM 55.4909 -36.1229 79° East 626 720 34,000  Level FlightAware Transoceanic
Mon 03:01:00 AM 55.5236 -35.8209 79° East 626 720 34,000  Level FlightAware Transoceanic
Mon 03:02:00 AM 55.5555 -35.5184 80° East 626 720 34,000  Level FlightAware Transoceanic
Mon 03:03:00 AM 55.5866 -35.2153 80° East 626 720 34,000  Level FlightAware Transoceanic
Mon 03:04:00 AM 55.6170 -34.9118 80° East 626 720 34,000  Level FlightAware Transoceanic
Mon 03:05:00 AM 55.6466 -34.6079 80° East 626 720 34,000  Level FlightAware Transoceanic
Mon 03:06:00 AM 55.6755 -34.3035 81° East 626 720 34,000  Level FlightAware Transoceanic
Mon 03:07:00 AM 55.7037 -33.9986 81° East 626 720 34,000  Level FlightAware Transoceanic
Mon 03:08:00 AM 55.7310 -33.6933 81° East 626 720 34,000  Level FlightAware Transoceanic
Mon 03:09:00 AM 55.7577 -33.3876 81° East 626 720 34,000  Level FlightAware Transoceanic
Mon 03:10:00 AM 55.7835 -33.0815 82° East 626 720 34,000  Level FlightAware Transoceanic
Mon 03:11:00 AM 55.8086 -32.7749 82° East 626 720 34,000  Level FlightAware Transoceanic
Mon 03:12:00 AM 55.8330 -32.4680 82° East 626 720 34,000  Level FlightAware Transoceanic
Mon 03:13:00 AM 55.8565 -32.1607 82° East 626 720 34,000  Level FlightAware Transoceanic
Mon 03:14:00 AM 55.8793 -31.8531 83° East 626 720 34,000  Level FlightAware Transoceanic
Mon 03:15:00 AM 55.9014 -31.5450 83° East 626 720 34,000  Level FlightAware Transoceanic
Mon 03:16:00 AM 55.9226 -31.2367 83° East 626 720 34,000  Level FlightAware Transoceanic
Mon 03:17:00 AM 55.9431 -30.9280 83° East 626 720 34,000  Level FlightAware Transoceanic
Mon 03:18:00 AM 55.9629 -30.6189 84° East 626 720 34,000  Level FlightAware Transoceanic
Mon 03:19:00 AM 55.9818 -30.3096 84° East 626 720 34,000  Level FlightAware Transoceanic
Mon 03:20:00 AM 55.9975 -30.0440 84° East  Level FlightAware Approximate
Mon 03:21:00 AM 56.0126 -29.7782 84° East  Level FlightAware Approximate
Mon 03:22:00 AM 56.0246 -29.8269 76° East  Level FlightAware Approximate
Mon 03:22:00 AM 56.0000 -30.0000 76° East 630 725 34,000  Level ETMS Enhanced Traffic Management System
Mon 03:23:00 AM 56.0609 -29.5675 76° East  Level FlightAware Approximate
Mon 03:24:00 AM 56.0969 -29.3062 76° East  Level FlightAware Approximate
Mon 03:25:00 AM 56.1324 -29.0444 76° East  Level FlightAware Approximate
Mon 03:26:00 AM 56.1673 -28.7821 76° East  Level FlightAware Approximate
Mon 03:27:00 AM 56.2016 -28.5194 77° East  Level FlightAware Approximate
Mon 03:28:00 AM 56.3247 -27.5524 78° East 630 725 34,000  Level FlightAware Transoceanic
Mon 03:29:00 AM 56.3619 -27.2437 78° East 630 725 34,000  Level FlightAware Transoceanic
Mon 03:30:00 AM 56.3983 -26.9343 78° East 630 725 34,000  Level FlightAware Transoceanic
Mon 03:31:00 AM 56.4339 -26.6243 78° East 630 725 34,000  Level FlightAware Transoceanic
Mon 03:32:00 AM 56.4688 -26.3138 79° East 630 725 34,000  Level FlightAware Transoceanic
Mon 03:33:00 AM 56.5029 -26.0027 79° East 630 725 34,000  Level FlightAware Transoceanic
Mon 03:34:00 AM 56.5362 -25.6910 79° East 630 725 34,000  Level FlightAware Transoceanic
Mon 03:35:00 AM 56.5687 -25.3788 79° East 630 725 34,000  Level FlightAware Transoceanic
Mon 03:36:00 AM 56.6004 -25.0661 80° East 630 725 34,000  Level FlightAware Transoceanic
Mon 03:37:00 AM 56.6314 -24.7528 80° East 630 725 34,000  Level FlightAware Transoceanic
Mon 03:38:00 AM 56.6616 -24.4391 80° East 630 725 34,000  Level FlightAware Transoceanic
Mon 03:39:00 AM 56.6909 -24.1248 80° East 630 725 34,000  Level FlightAware Transoceanic
Mon 03:40:00 AM 56.7195 -23.8101 81° East 630 725 34,000  Level FlightAware Transoceanic
Mon 03:41:00 AM 56.7473 -23.4949 81° East 630 725 34,000  Level FlightAware Transoceanic
Mon 03:42:00 AM 56.7743 -23.1792 81° East 630 725 34,000  Level FlightAware Transoceanic
Mon 03:43:00 AM 56.8005 -22.8631 82° East 630 725 34,000  Level FlightAware Transoceanic
Mon 03:44:00 AM 56.8259 -22.5466 82° East 630 725 34,000  Level FlightAware Transoceanic
Mon 03:45:00 AM 56.8505 -22.2296 82° East 630 725 34,000  Level FlightAware Transoceanic
Mon 03:46:00 AM 56.8743 -21.9122 82° East 630 725 34,000  Level FlightAware Transoceanic
Mon 03:47:00 AM 56.8972 -21.5944 83° East 630 725 34,000  Level FlightAware Transoceanic
Mon 03:48:00 AM 56.9194 -21.2763 83° East 630 725 34,000  Level FlightAware Transoceanic
Mon 03:49:00 AM 56.9408 -20.9577 83° East 630 725 34,000  Level FlightAware Transoceanic
Mon 03:50:00 AM 56.9613 -20.6388 83° East 630 725 34,000  Level FlightAware Transoceanic
Mon 03:51:00 AM 56.9811 -20.3196 84° East 630 725 34,000 30 Level FlightAware Transoceanic
Mon 03:52:00 AM 56.9974 -20.0455 84° East  Level FlightAware Approximate
Mon 03:53:00 AM 57.0130 -19.7712 84° East  Level FlightAware Approximate
Mon 03:54:00 AM 56.9907 -19.8166 95° East  Level FlightAware Approximate
Mon 03:55:00 AM 56.9763 -19.5422 95° East  Level FlightAware Approximate
Mon 03:56:00 AM 56.9613 -19.2680 96° East  Level FlightAware Approximate
Mon 03:57:00 AM 56.9457 -18.9946 96° East  Level FlightAware Approximate
Mon 03:58:00 AM 56.9295 -18.7214 96° East  Level FlightAware Approximate
Mon 03:59:00 AM 56.9127 -18.4484 96° East  Level FlightAware Approximate
Mon 04:00:00 AM 56.8953 -18.1756 97° East  Level FlightAware Approximate
Mon 04:01:00 AM 56.8773 -17.9032 97° East  Level FlightAware Approximate
Mon 04:02:00 AM 56.8588 -17.6310 97° East  Level FlightAware Approximate
Mon 04:03:00 AM 56.8396 -17.3591 97° East  Level FlightAware Approximate
Mon 04:04:00 AM 56.8199 -17.0874 97° East  Level FlightAware Approximate
Mon 04:05:00 AM 56.7995 -16.8160 98° East  Level FlightAware Approximate
Mon 04:06:00 AM 56.7786 -16.5450 98° East  Level FlightAware Approximate
Mon 04:07:00 AM 56.7571 -16.2742 98° East  Level FlightAware Approximate
Mon 04:08:00 AM 56.7350 -16.0038 98° East  Level FlightAware Approximate
Mon 04:09:00 AM 56.7123 -15.7337 99° East  Level FlightAware Approximate
Mon 04:10:00 AM 56.6890 -15.4639 99° East  Level FlightAware Approximate
Mon 04:11:00 AM 56.6652 -15.1944 99° East  Level FlightAware Approximate
Mon 04:12:00 AM 56.6407 -14.9249 99° East  Level FlightAware Approximate
Mon 04:13:00 AM 56.6157 -14.6556 99° East  Level FlightAware Approximate
Mon 04:14:00 AM 56.5900 -14.3868 100° East  Level FlightAware Approximate
Mon 04:15:00 AM 56.5639 -14.1188 100° East  Level FlightAware Approximate
Mon 04:16:00 AM 56.5371 -13.8511 100° East  Level FlightAware Approximate
Mon 04:17:00 AM 56.5098 -13.5838 100° East  Level FlightAware Approximate
Mon 04:18:00 AM 56.4819 -13.3170 101° East  Level FlightAware Approximate
Mon 04:19:00 AM 56.4535 -13.0505 101° East  Level FlightAware Approximate
Mon 04:19:52 AM 56.5970 -11.7430 101° East 605 696 34,900  Level FlightAware ADS-B
Mon 04:20:00 AM 56.4244 -12.7844 101° East  Level FlightAware Approximate
Mon 04:20:47 AM 56.5630 -11.4990 104° East 604 695 34,900  Level FlightAware ADS-B
Mon 04:21:00 AM 56.3948 -12.5187 101° East  Level FlightAware Approximate
Mon 04:21:37 AM 56.5210 -11.2300 106° East 606 697 34,900  Level FlightAware ADS-B
Mon 04:22:22 AM 56.4820 -10.9920 106° East 603 694 34,900  Level FlightAware ADS-B
Mon 04:24:00 AM 56.4050 -10.5715 108° East  Level Estimated
Mon 04:24:32 AM 56.3720 -10.3820 108° East 604 695 34,900  Level FlightAware ADS-B
Mon 04:25:22 AM 56.3260 -10.1520 110° East 606 697 34,900  Level FlightAware ADS-B
Mon 04:26:02 AM 56.2870 -9.9620 110° East 606 697 34,900  Level FlightAware ADS-B
Mon 04:26:47 AM 56.2430 -9.7460 110° East 606 697 34,900  Level FlightAware ADS-B
Mon 04:27:27 AM 56.2030 -9.5520 110° East 606 697 34,900  Level FlightAware ADS-B
Mon 04:28:12 AM 56.1580 -9.3360 110° East 607 699 34,900  Level FlightAware ADS-B
Mon 04:28:52 AM 56.1180 -9.1460 111° Southeast 604 695 34,900 -1,250 Level FlightAware ADS-B
Mon 04:29:24 AM 56.0809 -8.9824 111° Southeast 496 571 33,400  Descending FlightAware UK
Mon 04:29:32 AM 56.0760 -8.9520 111° Southeast 607 699 34,900  Climbing FlightAware ADS-B
Mon 04:29:48 AM 56.0564 -8.8697 111° Southeast 496 571 33,400 -2,250 Descending FlightAware UK
Mon 04:30:12 AM 56.0323 -8.7578 111° Southeast 498 573 33,400 3,750 Level FlightAware UK
Mon 04:30:12 AM 56.0360 -8.7640 111° Southeast 604 695 34,900  Climbing FlightAware ADS-B
Mon 04:30:36 AM 56.0075 -8.6449 111° Southeast 498 573 33,400  Descending FlightAware UK
Mon 04:30:57 AM 55.9890 -8.5510 111° Southeast 604 695 34,900  Climbing FlightAware ADS-B
Mon 04:31:12 AM 55.9710 -8.4770 111° Southeast 498 573 33,400 -2,727 Descending FlightAware UK
Mon 04:31:30 AM 55.9524 -8.3934 112° Southeast 498 573 33,400 3,600 Level FlightAware UK
Mon 04:31:37 AM 55.9480 -8.3660 112° Southeast 604 695 34,900  Climbing FlightAware ADS-B
Mon 04:31:54 AM 55.9276 -8.2823 112° Southeast 498 573 33,400 -2,571 Descending FlightAware UK
Mon 04:32:12 AM 55.9091 -8.1987 111° Southeast 496 571 33,400 3,214 Level FlightAware UK
Mon 04:32:22 AM 55.9030 -8.1610 111° Southeast 608 700 34,900  Climbing FlightAware ADS-B
Mon 04:32:42 AM 55.8783 -8.0591 111° Southeast 498 573 33,400 -2,368 Descending FlightAware UK
Mon 04:33:00 AM 55.8598 -7.9753 111° Southeast 498 573 33,400 4,500 Level FlightAware UK
Mon 04:33:02 AM 55.8610 -7.9730 111° Southeast 607 699 34,900  Climbing FlightAware ADS-B
Mon 04:33:18 AM 55.8411 -7.8919 111° Southeast 498 573 33,400 -2,250 Descending FlightAware UK
Mon 04:33:42 AM 55.8161 -7.7809 112° Southeast 498 573 33,400 3,103 Level FlightAware UK
Mon 04:33:47 AM 55.8150 -7.7650 112° Southeast 606 697 34,900  Climbing FlightAware ADS-B
Mon 04:34:06 AM 55.7913 -7.6701 112° Southeast 498 573 33,400 -2,432 Descending FlightAware UK
Mon 04:34:24 AM 55.7727 -7.5873 112° Southeast 498 573 33,400 4,286 Level FlightAware UK
Mon 04:34:27 AM 55.7730 -7.5810 112° Southeast 606 697 34,900  Climbing FlightAware ADS-B
Mon 04:34:42 AM 55.7540 -7.5045 112° Southeast 498 573 33,400 -2,727 Descending FlightAware UK
Mon 04:35:00 AM 55.7352 -7.4209 112° Southeast 496 571 33,400 3,600 Level FlightAware UK
Mon 04:35:07 AM 55.7320 -7.3970 112° Southeast 605 696 34,900  Climbing FlightAware ADS-B
Mon 04:35:24 AM 55.7101 -7.3109 112° Southeast 496 571 33,400 -2,195 Descending FlightAware UK
Mon 04:35:48 AM 55.6848 -7.2010 112° Southeast 498 573 33,400 3,214 Level FlightAware UK
Mon 04:35:52 AM 55.6850 -7.1930 112° Southeast 605 696 34,900  Climbing FlightAware ADS-B
Mon 04:36:12 AM 55.6596 -7.0912 112° Southeast 498 573 33,400 -2,368 Descending FlightAware UK
Mon 04:36:30 AM 55.6408 -7.0089 112° Southeast 498 573 33,400 4,500 Level FlightAware UK
Mon 04:36:32 AM 55.6430 -7.0090 112° Southeast 604 695 34,900  Climbing FlightAware ADS-B
Mon 04:36:48 AM 55.6219 -6.9267 112° Southeast 500 575 33,400 -2,647 Descending FlightAware UK
Mon 04:37:06 AM 55.6030 -6.8447 112° Southeast 500 575 33,400 3,103 Level FlightAware UK
Mon 04:37:17 AM 55.5980 -6.8150 112° Southeast 603 694 34,900  Climbing FlightAware ADS-B
Mon 04:37:36 AM 55.5712 -6.7085 112° Southeast 500 575 33,400  Descending FlightAware UK
Mon 04:37:57 AM 55.5550 -6.6320 112° Southeast 602 693 34,900  Climbing FlightAware ADS-B
Mon 04:38:12 AM 55.5330 -6.5456 112° Southeast 498 573 33,400 -2,727 Descending FlightAware UK
Mon 04:38:30 AM 55.5139 -6.4644 113° Southeast 498 573 33,400 3,000 Level FlightAware UK
Mon 04:38:42 AM 55.5080 -6.4300 113° Southeast 599 689 34,900  Climbing FlightAware ADS-B
Mon 04:39:00 AM 55.4820 -6.3292 113° Southeast 498 573 33,400  Descending FlightAware UK
Mon 04:39:22 AM 55.4650 -6.2490 113° Southeast 597 687 34,900  Climbing FlightAware ADS-B
Mon 04:39:42 AM 55.4368 -6.1406 113° Southeast 498 573 33,400 -2,368 Descending FlightAware UK
Mon 04:40:00 AM 55.4171 -6.0591 113° Southeast 498 573 33,400 4,500 Level FlightAware UK
Mon 04:40:02 AM 55.4220 -6.0690 113° Southeast 597 687 34,900  Climbing FlightAware ADS-B
Mon 04:40:18 AM 55.3976 -5.9785 113° Southeast 496 571 33,400 -2,647 Descending FlightAware UK
Mon 04:40:36 AM 55.3781 -5.8980 113° Southeast 498 573 33,400 3,103 Level FlightAware UK
Mon 04:40:47 AM 55.3730 -5.8680 113° Southeast 597 687 34,900  Climbing FlightAware ADS-B
Mon 04:41:06 AM 55.3455 -5.7642 113° Southeast 498 573 33,400 -2,432 Descending FlightAware UK
Mon 04:41:24 AM 55.3258 -5.6841 113° Southeast 498 573 33,400  Level FlightAware UK
Mon 04:41:42 AM 55.3061 -5.6041 113° Southeast 500 575 33,400  Level FlightAware UK
Mon 04:42:00 AM 55.2864 -5.5243 113° Southeast 500 575 33,400  Level FlightAware UK
Mon 04:42:18 AM 55.2668 -5.4446 113° Southeast 500 575 33,400  Level FlightAware UK
Mon 04:42:36 AM 55.2472 -5.3651 113° Southeast 498 573 33,400  Level FlightAware UK
Mon 04:42:54 AM 55.2278 -5.2855 113° Southeast 498 573 33,400  Level FlightAware UK
Mon 04:43:12 AM 55.2084 -5.2062 113° Southeast 500 575 33,400  Level FlightAware UK
Mon 04:43:30 AM 55.1889 -5.1271 113° Southeast 500 575 33,400  Level FlightAware UK
Mon 04:43:48 AM 55.1696 -5.0480 113° Southeast 498 573 33,400  Level FlightAware UK
Mon 04:44:06 AM 55.1503 -4.9693 113° Southeast 498 573 33,400  Level FlightAware UK
Mon 04:44:24 AM 55.1309 -4.8907 113° Southeast 498 573 33,400  Level FlightAware UK
Mon 04:44:42 AM 55.1113 -4.8114 113° Southeast 500 575 33,400  Level FlightAware UK
Mon 04:45:00 AM 55.0919 -4.7329 113° Southeast 500 575 33,400  Level FlightAware UK
Mon 04:45:24 AM 55.0657 -4.6290 114° Southeast 496 571 33,400  Level FlightAware UK
Mon 04:45:48 AM 55.0397 -4.5257 114° Southeast 492 566 33,400 2,093 Level FlightAware UK
Mon 04:46:07 AM 55.0220 -4.4420 114° Southeast 586 674 34,900  Climbing FlightAware ADS-B
Mon 04:46:30 AM 54.9937 -4.3459 114° Southeast 498 573 33,400  Descending FlightAware UK
Mon 04:46:52 AM 54.9730 -4.2510 114° Southeast 587 676 34,900  Climbing FlightAware ADS-B
Mon 04:47:12 AM 54.9471 -4.1657 114° Southeast 494 568 33,400  Descending FlightAware UK
Mon 04:47:32 AM 54.9310 -4.0880 114° Southeast 586 674 34,900  Climbing FlightAware ADS-B
Mon 04:47:49 AM 54.9066 -4.0111 114° Southeast 494 568 33,400  Descending FlightAware UK
Mon 04:48:12 AM 54.8820 -3.9030 114° Southeast 587 676 34,900  Climbing FlightAware ADS-B
Mon 04:48:31 AM 54.8594 -3.8320 114° Southeast 492 566 33,400 -2,432 Descending FlightAware UK
Mon 04:48:49 AM 54.8373 -3.7561 117° Southeast 492 566 33,400 3,462 Level FlightAware UK
Mon 04:48:57 AM 54.8310 -3.7210 117° Southeast 594 684 34,900  Climbing FlightAware ADS-B
Mon 04:49:19 AM 54.7910 -3.6370 117° Southeast 496 571 33,400  Descending FlightAware UK
Mon 04:49:37 AM 54.7640 -3.5680 117° Southeast 600 690 34,900  Climbing FlightAware ADS-B
Mon 04:50:01 AM 54.7084 -3.4965 117° Southeast 498 573 33,400  Descending FlightAware UK
Mon 04:50:22 AM 54.6670 -3.4320 117° Southeast 597 687 34,900  Climbing FlightAware ADS-B
Mon 04:50:37 AM 54.6255 -3.4023 117° Southeast 498 573 33,400  Descending FlightAware UK
Mon 04:51:02 AM 54.5770 -3.3320 117° Southeast 596 686 34,900  Climbing FlightAware ADS-B
Mon 04:51:19 AM 54.5262 -3.3010 117° Southeast 496 571 33,400 -2,571 Descending FlightAware UK
Mon 04:51:37 AM 54.4820 -3.2641 154° Southeast 496 571 33,400 3,214 Level FlightAware UK
Mon 04:51:47 AM 54.4640 -3.2320 154° Southeast 592 681 34,900  Climbing FlightAware ADS-B
Mon 04:52:07 AM 54.4075 -3.2053 154° Southeast 496 571 33,400 -2,368 Descending FlightAware UK
Mon 04:52:25 AM 54.3623 -3.1696 155° Southeast 494 568 33,400 4,500 Level FlightAware UK
Mon 04:52:27 AM 54.3620 -3.1500 155° Southeast 592 681 34,900  Climbing FlightAware ADS-B
Mon 04:52:43 AM 54.3178 -3.1339 155° Southeast 494 568 33,400 -2,647 Descending FlightAware UK
Mon 04:53:01 AM 54.2734 -3.0977 155° Southeast 494 568 33,400 3,750 Level FlightAware UK
Mon 04:53:07 AM 54.2680 -3.0740 155° Southeast 591 680 34,900  Climbing FlightAware ADS-B
Mon 04:53:31 AM 54.1997 -3.0367 155° Southeast 494 568 33,400 -2,143 Descending FlightAware UK
Mon 04:53:49 AM 54.1548 -3.0005 155° Southeast 494 568 33,400 4,286 Level FlightAware UK
Mon 04:53:52 AM 54.1540 -2.9810 155° Southeast 590 679 34,900  Climbing FlightAware ADS-B
Mon 04:54:07 AM 54.1101 -2.9660 155° Southeast 494 568 33,400 -2,727 Descending FlightAware UK
Mon 04:54:25 AM 54.0653 -2.9318 156° South 494 568 33,400 3,600 Level FlightAware UK
Mon 04:54:32 AM 54.0640 -2.9120 156° South 591 680 34,900  Climbing FlightAware ADS-B
Mon 04:54:49 AM 54.0057 -2.8862 156° South 496 571 33,400  Descending FlightAware UK
Mon 04:55:17 AM 53.9410 -2.8160 156° South 592 681 34,900  Climbing FlightAware ADS-B
Mon 04:55:37 AM 53.8864 -2.7944 156° South 498 573 33,400 -2,368 Descending FlightAware UK
Mon 04:55:55 AM 53.8417 -2.7597 155° Southeast 498 573 33,400 4,500 Level FlightAware UK
Mon 04:55:57 AM 53.8420 -2.7400 155° Southeast 592 681 34,900  Climbing FlightAware ADS-B
Mon 04:56:19 AM 53.7813 -2.7133 155° Southeast 496 571 33,400 -2,250 Descending FlightAware UK
Mon 04:56:37 AM 53.7365 -2.6788 156° South 496 571 33,400 5,000 Level FlightAware UK
Mon 04:56:37 AM 53.7420 -2.6620 156° South 593 682 34,900  Climbing FlightAware ADS-B
Mon 04:56:55 AM 53.6916 -2.6443 156° South 496 571 33,400 -2,500 Descending FlightAware UK
Mon 04:57:13 AM 53.6467 -2.6099 156° South 496 571 33,400 3,333 Level FlightAware UK
Mon 04:57:22 AM 53.6280 -2.5740 156° South 592 681 34,900 2,432 Climbing FlightAware ADS-B
Mon 04:57:50 AM 53.5556 -2.5192 156° South 591 680 34,900  Level FlightAware ADS-B
Mon 04:58:23 AM 53.4739 -2.4571 156° South 590 679 34,900 -1,698 Level FlightAware ADS-B
Mon 04:58:43 AM 53.4227 -2.4406 156° South 500 575 33,400  Descending FlightAware UK
Mon 04:58:59 AM 53.3848 -2.3899 156° South 590 679 34,900  Climbing FlightAware ADS-B
Mon 04:59:20 AM 53.3327 -2.3734 156° South 498 573 33,400  Descending FlightAware UK
Mon 04:59:45 AM 53.2691 -2.3035 156° South 587 676 34,900  Climbing FlightAware ADS-B
Mon 05:00:02 AM 53.2286 -2.2963 156° South 498 573 33,400 -2,571 Descending FlightAware UK
Mon 05:00:20 AM 53.1841 -2.2636 156° South 496 571 33,400 2,571 Level FlightAware UK
Mon 05:00:37 AM 53.1480 -2.2130 156° South 585 673 34,900  Climbing FlightAware ADS-B
Mon 05:00:38 AM 53.1396 -2.2308 156° South 494 568 33,400 -3,750 Descending FlightAware UK
Mon 05:01:01 AM 53.0809 -2.1877 156° South 494 568 33,400 2,045 Level FlightAware UK
Mon 05:01:22 AM 53.0380 -2.1330 156° South 584 672 34,900  Climbing FlightAware ADS-B
Mon 05:01:38 AM 52.9915 -2.1227 156° South 494 568 33,400 -2,647 Descending FlightAware UK
Mon 05:01:56 AM 52.9470 -2.0905 156° South 494 568 33,400 3,750 Level FlightAware UK
Mon 05:02:02 AM 52.9370 -2.0590 156° South 584 672 34,900 3,103 Climbing FlightAware ADS-B
Mon 05:02:25 AM 52.8742 -2.0136 156° South 584 672 34,900 -2,143 Level FlightAware ADS-B
Mon 05:02:44 AM 52.8280 -2.0041 156° South 494 568 33,400  Descending FlightAware UK
Mon 05:02:59 AM 52.7901 -1.9524 156° South 584 672 34,900 1,765 Climbing FlightAware ADS-B
Mon 05:03:35 AM 52.7029 -1.8890 156° South 585 673 34,900  Level FlightAware ADS-B
Mon 05:04:05 AM 52.6282 -1.8349 156° South 585 673 34,900 -2,000 Level FlightAware ADS-B
Mon 05:04:20 AM 52.5903 -1.8317 156° South 494 568 33,400  Descending FlightAware UK
Mon 05:04:36 AM 52.5513 -1.7794 156° South 586 674 34,900  Climbing FlightAware ADS-B
Mon 05:04:56 AM 52.5010 -1.7675 156° South 496 571 33,400  Descending FlightAware UK
Mon 05:05:07 AM 52.4744 -1.7244 156° South 587 676 34,900 2,813 Climbing FlightAware ADS-B
Mon 05:05:28 AM 52.4219 -1.6864 156° South 587 676 34,900  Level FlightAware ADS-B
Mon 05:05:42 AM 52.3871 -1.6564 152° Southeast 585 673 34,900  Level FlightAware ADS-B
Mon 05:06:01 AM 52.3462 -1.6116 146° Southeast 584 672 34,900  Level FlightAware ADS-B
Mon 05:06:09 AM 52.3279 -1.5869 140° Southeast 584 672 34,900 -3,600 Level FlightAware ADS-B
Mon 05:06:26 AM 52.2954 -1.5602 140° Southeast 496 571 33,400  Descending FlightAware UK
Mon 05:06:32 AM 52.2849 -1.5200 140° Southeast 581 669 34,900 2,368 Climbing FlightAware ADS-B
Mon 05:07:04 AM 52.2242 -1.4176 134° Southeast 581 669 34,900 -1,875 Level FlightAware ADS-B
Mon 05:07:20 AM 52.1943 -1.3911 134° Southeast 496 571 33,400  Descending FlightAware UK
Mon 05:07:34 AM 52.1683 -1.3220 134° Southeast 579 666 34,900  Climbing FlightAware ADS-B
Mon 05:07:50 AM 52.1387 -1.2956 134° Southeast 494 568 33,400  Descending FlightAware UK
Mon 05:08:06 AM 52.1096 -1.2228 134° Southeast 579 666 34,900 1,875 Climbing FlightAware ADS-B
Mon 05:08:38 AM 52.0510 -1.1245 134° Southeast 578 665 34,900  Level FlightAware ADS-B
Mon 05:09:08 AM 51.9948 -1.0303 134° Southeast 579 666 34,900 -1,837 Level FlightAware ADS-B
Mon 05:09:27 AM 51.9595 -0.9956 134° Southeast 496 571 33,400  Descending FlightAware UK
Mon 05:09:39 AM 51.9363 -0.9323 134° Southeast 577 664 34,900 2,045 Climbing FlightAware ADS-B
Mon 05:10:11 AM 51.8776 -0.8347 134° Southeast 576 663 34,900  Level FlightAware ADS-B
Mon 05:10:41 AM 51.8207 -0.7403 134° Southeast 576 663 34,900  Level FlightAware ADS-B
Mon 05:11:12 AM 51.7632 -0.6454 134° Southeast 575 662 34,900 -1,957 Level FlightAware ADS-B
Mon 05:11:27 AM 51.7361 -0.6248 134° Southeast 494 568 33,400  Descending FlightAware UK
Mon 05:11:43 AM 51.7061 -0.5525 134° Southeast 574 661 34,900  Climbing FlightAware ADS-B
Mon 05:12:03 AM 51.6684 -0.5147 134° Southeast 496 571 33,400  Descending FlightAware UK
Mon 05:12:13 AM 51.6497 -0.4605 134° Southeast 573 659 34,900 3,214 Climbing FlightAware ADS-B
Mon 05:12:31 AM 51.6199 -0.4037 130° Southeast 564 649 34,900  Level FlightAware ADS-B
Mon 05:12:41 AM 51.6062 -0.3680 122° Southeast 556 640 34,900  Level FlightAware ADS-B
Mon 05:12:54 AM 51.5924 -0.3206 115° Southeast 545 627 34,900  Level FlightAware ADS-B
Mon 05:13:10 AM 51.5811 -0.2567 106° East 530 610 34,900 -2,308 Level FlightAware ADS-B
Mon 05:13:33 AM 51.5730 -0.1914 106° East 494 568 33,400  Descending FlightAware UK
Mon 05:13:42 AM 51.5694 -0.1335 106° East 527 606 34,900 3,750 Climbing FlightAware ADS-B
Mon 05:13:57 AM 51.5623 -0.0773 101° East 532 612 34,900  Level FlightAware ADS-B
Mon 05:14:16 AM 51.5512 -0.0039 104° East 536 617 34,900 -2,500 Level FlightAware ADS-B
Mon 05:14:33 AM 51.5397 0.0394 104° East 496 571 33,400  Descending FlightAware UK
Mon 05:14:47 AM 51.5304 0.1154 104° East 537 618 34,900 2,000 Climbing FlightAware ADS-B
Mon 05:15:18 AM 51.5108 0.2326 105° East 532 612 34,900 -1,957 Level FlightAware ADS-B
Mon 05:15:33 AM 51.5014 0.2702 105° East 496 571 33,400  Descending FlightAware UK
Mon 05:15:53 AM 51.4904 0.3667 105° East 530 610 34,900 1,698 Climbing FlightAware ADS-B
Mon 05:16:26 AM 51.4711 0.4926 104° East 529 609 34,900 -1,698 Level FlightAware ADS-B
Mon 05:16:46 AM 51.4594 0.5457 104° East 496 571 33,400  Descending FlightAware UK
Mon 05:16:57 AM 51.4531 0.6089 104° East 529 609 34,900  Climbing FlightAware ADS-B
Mon 05:17:22 AM 51.4375 0.6832 104° East 496 571 33,400  Descending FlightAware UK
Mon 05:17:28 AM 51.4340 0.7288 104° East 528 608 34,900  Climbing FlightAware ADS-B
Mon 05:17:52 AM 51.4191 0.7967 104° East 492 566 33,400  Descending FlightAware UK
Mon 05:18:00 AM 51.4142 0.8495 104° East 527 606 34,900  Climbing FlightAware ADS-B
Mon 05:18:16 AM 51.4040 0.8880 104° East 492 566 33,400  Descending FlightAware UK
Mon 05:18:32 AM 51.3943 0.9701 104° East 527 606 34,900  Climbing FlightAware ADS-B
Mon 05:18:52 AM 51.3814 1.0238 104° East 492 566 33,400  Descending FlightAware UK
Mon 05:19:11 AM 51.3698 1.1157 104° East 527 606 34,900  Climbing FlightAware ADS-B
Mon 05:19:28 AM 51.3582 1.1602 104° East 492 566 33,400 -2,195 Descending FlightAware UK
Mon 05:19:52 AM 51.3428 1.2506 105° East 492 566 33,400  Level FlightAware UK
Mon 05:20:10 AM 51.3314 1.3185 105° East 494 568 33,400 3,600 Level FlightAware UK
Mon 05:20:17 AM 51.3300 1.3520 105° East 527 606 34,900  Climbing FlightAware ADS-B
Mon 05:20:34 AM 51.3161 1.4089 105° East 494 568 33,400  Descending FlightAware UK
Mon 05:20:57 AM 51.3040 1.5040 105° East 526 605 34,900  Climbing FlightAware ADS-B
Mon 05:21:22 AM 51.2852 1.5892 105° East 494 568 33,400  Descending FlightAware UK
Mon 05:21:42 AM 51.2740 1.6780 105° East 526 605 34,900  Climbing FlightAware ADS-B
Mon 05:22:04 AM 51.2575 1.7464 105° East 492 566 33,400  Descending FlightAware UK
Mon 05:22:22 AM 51.2480 1.8240 105° East 526 605 34,900 1,552 Climbing FlightAware ADS-B
Mon 05:23:02 AM 51.2210 1.9710 106° East 525 604 34,900 -1,500 Level FlightAware ADS-B
Mon 05:23:22 AM 51.2043 2.0380 106° East 494 568 33,400  Descending FlightAware UK
Mon 05:23:42 AM 51.1960 2.1090 106° East 525 604 34,900  Climbing FlightAware ADS-B
Mon 05:24:04 AM 51.1753 2.1939 106° East 492 566 33,400  Descending FlightAware UK
Mon 05:24:22 AM 51.1660 2.2670 106° East 524 603 34,900 1,552 Climbing FlightAware ADS-B
Mon 05:25:02 AM 51.1390 2.4140 106° East 524 603 34,900 -1,343 Level FlightAware ADS-B
Mon 05:25:29 AM 51.1170 2.5059 106° East 492 566 33,400  Descending FlightAware UK
Mon 05:25:52 AM 51.1080 2.5800 106° East 523 602 34,900 1,552 Climbing FlightAware ADS-B
Mon 05:26:27 AM 51.0810 2.7230 107° East 523 602 34,900  Level FlightAware ADS-B
Mon 05:27:17 AM 51.0440 2.9150 107° East 521 600 34,900  Level FlightAware ADS-B
Mon 05:27:52 AM 51.0200 3.0370 107° East 520 598 34,900 -1,154 Level FlightAware ADS-B
Mon 05:28:35 AM 50.9852 3.1890 107° East 494 568 33,400  Descending FlightAware UK
Mon 05:28:37 AM 50.9880 3.1990 107° East 520 598 34,900 1,915 Climbing FlightAware ADS-B
Mon 05:29:22 AM 50.9580 3.3540 107° East 519 597 34,900  Level FlightAware ADS-B
Mon 05:30:02 AM 50.9260 3.5170 107° East 517 595 34,900 -1,343 Level FlightAware ADS-B
Mon 05:30:29 AM 50.9030 3.6039 107° East 496 571 33,400  Descending FlightAware UK
Mon 05:30:47 AM 50.8930 3.6750 107° East 527 606 34,900  Climbing FlightAware ADS-B
Mon 05:31:05 AM 50.8654 3.7293 107° East 494 568 33,400  Descending FlightAware UK
Mon 05:31:27 AM 50.8420 3.8110 107° East 539 620 34,900 1,343 Climbing FlightAware ADS-B
Mon 05:32:12 AM 50.7820 3.9670 121° Southeast 536 617 34,900  Level FlightAware ADS-B
Mon 05:32:52 AM 50.7340 4.1000 120° Southeast 534 615 34,900 -1,268 Level FlightAware ADS-B
Mon 05:33:23 AM 50.6902 4.1951 120° Southeast 494 568 33,400  Descending FlightAware UK
Mon 05:33:37 AM 50.6790 4.2500 120° Southeast 530 610 34,900  Climbing FlightAware ADS-B
Mon 05:33:53 AM 50.6541 4.2975 120° Southeast 494 568 33,400  Descending FlightAware UK
Mon 05:34:17 AM 50.6340 4.3760 120° Southeast 529 609 34,900  Climbing FlightAware ADS-B
Mon 05:34:47 AM 50.5896 4.4803 120° Southeast 488 562 33,400  Descending FlightAware UK
Mon 05:34:57 AM 50.5860 4.5100 120° Southeast 530 610 34,900 1,636 Climbing FlightAware ADS-B
Mon 05:35:42 AM 50.5260 4.6690 121° Southeast 535 616 34,900  Level FlightAware ADS-B
Mon 05:36:22 AM 50.4750 4.8020 121° Southeast 534 615 34,900  Level FlightAware ADS-B
Mon 05:37:02 AM 50.4250 4.9340 121° Southeast 535 616 34,900  Level FlightAware ADS-B
Mon 05:37:37 AM 50.3840 5.0420 121° Southeast 534 615 34,900  Level FlightAware ADS-B
Mon 05:38:27 AM 50.3200 5.2090 121° Southeast 532 612 34,900  Level FlightAware ADS-B
Mon 05:39:07 AM 50.2680 5.3420 121° Southeast 530 610 34,900  Level FlightAware ADS-B
Mon 05:39:47 AM 50.2170 5.4750 121° Southeast 528 608 34,900  Level FlightAware ADS-B
Mon 05:40:32 AM 50.1590 5.6240 121° Southeast 525 604 34,900  Level FlightAware ADS-B
Mon 05:41:12 AM 50.1120 5.7450 121° Southeast 522 601 34,900  Level FlightAware ADS-B
Mon 05:41:52 AM 50.0580 5.8810 122° Southeast 518 596 34,900  Level FlightAware ADS-B
Mon 05:42:37 AM 50.0030 6.0190 122° Southeast 515 593 34,900  Level FlightAware ADS-B
Mon 05:43:17 AM 49.9540 6.1430 122° Southeast 514 592 34,900  Level FlightAware ADS-B
Mon 05:44:02 AM 49.8980 6.2830 122° Southeast 514 592 34,900  Level FlightAware ADS-B
Mon 05:44:42 AM 49.8450 6.4130 122° Southeast 514 592 34,900  Level FlightAware ADS-B
Mon 05:45:37 AM 49.7760 6.5840 122° Southeast 512 589 34,900  Level FlightAware ADS-B
Mon 05:46:42 AM 49.6980 6.7760 122° Southeast 511 588 34,900  Level FlightAware ADS-B
Mon 05:48:57 AM 49.5260 7.1950 122° Southeast 504 580 34,900  Level FlightAware ADS-B
Mon 05:51:00 AM 49.3712 7.6054 120° Southeast  Level Estimated
Mon 05:51:57 AM 49.3000 7.7320 120° Southeast 485 558 34,900  Level FlightAware ADS-B
Mon 05:52:00 AM 49.2952 7.8046 120° Southeast  Level Estimated
Mon 05:54:00 AM 49.1435 8.1390 120° Southeast  Level Estimated
Mon 05:55:00 AM 49.0666 8.3365 121° Southeast  Level Estimated
Mon 05:56:00 AM 48.9894 8.5335 121° Southeast  Level Estimated
Mon 05:57:00 AM 48.9119 8.7298 121° Southeast  Level Estimated
Mon 05:58:00 AM 48.8340 8.9256 121° Southeast  Level Estimated
Mon 05:59:00 AM 48.7558 9.1207 121° Southeast  Level Estimated
Mon 05:59:12 AM 48.6620 8.7980 121° Southeast 461 531 34,900  Level FlightAware ADS-B
Mon 05:59:52 AM 48.6000 8.8760 140° Southeast 461 531 34,900  Level FlightAware ADS-B
Mon 06:00:37 AM 48.5250 8.9690 141° Southeast 461 531 34,900  Level FlightAware ADS-B
Mon 06:01:17 AM 48.4580 9.0520 141° Southeast 460 529 34,900  Level FlightAware ADS-B
Mon 06:01:57 AM 48.3910 9.1340 141° Southeast 460 529 34,900  Level FlightAware ADS-B
Mon 06:02:42 AM 48.3170 9.2250 141° Southeast 462 532 34,900  Level FlightAware ADS-B
Mon 06:03:22 AM 48.2510 9.3050 141° Southeast 461 531 34,900  Level FlightAware ADS-B
Mon 06:04:02 AM 48.1870 9.3840 141° Southeast 460 529 34,900  Level FlightAware ADS-B
Mon 06:04:47 AM 48.1070 9.4820 141° Southeast 459 528 34,900  Level FlightAware ADS-B
Mon 06:05:22 AM 48.0490 9.5520 141° Southeast 458 527 34,900  Level FlightAware ADS-B
Mon 06:06:12 AM 47.9610 9.6570 141° Southeast 458 527 34,900  Level FlightAware ADS-B
Mon 06:06:52 AM 47.8960 9.7360 141° Southeast 456 525 34,900  Level FlightAware ADS-B
Mon 06:07:32 AM 47.8310 9.8130 141° Southeast 454 522 34,900  Level FlightAware ADS-B
Mon 06:08:17 AM 47.7540 9.9060 141° Southeast 456 525 34,900  Level FlightAware ADS-B
Mon 06:08:52 AM 47.6970 9.9720 142° Southeast 454 522 34,900  Level FlightAware ADS-B
Mon 06:09:42 AM 47.6120 10.0720 142° Southeast 453 521 34,900  Level FlightAware ADS-B
Mon 06:10:22 AM 47.5460 10.1510 141° Southeast 458 527 34,900  Level FlightAware ADS-B
Mon 06:11:17 AM 47.4540 10.2590 142° Southeast 458 527 34,900  Level FlightAware ADS-B
Mon 06:11:57 AM 47.3890 10.3360 141° Southeast 451 519 34,900  Level FlightAware ADS-B
Mon 06:12:42 AM 47.3170 10.4190 142° Southeast 457 526 34,900  Level FlightAware ADS-B
Mon 06:13:22 AM 47.2590 10.4870 141° Southeast 454 522 34,900  Level FlightAware ADS-B
Mon 06:14:03 AM 47.1950 10.5500 146° Southeast 460 529 34,900  Level FlightAware ADS-B
Mon 06:15:02 AM 47.0740 10.6330 155° Southeast 458 527 34,900  Level FlightAware ADS-B
Mon 06:15:42 AM 47.0030 10.6960 149° Southeast 461 531 34,900  Level FlightAware ADS-B
Mon 06:16:27 AM 46.9390 10.7530 149° Southeast 463 533 34,900  Level FlightAware ADS-B
Mon 06:17:07 AM 46.8730 10.8160 147° Southeast 468 539 34,900  Level FlightAware ADS-B
Mon 06:17:52 AM 46.7740 10.9690 133° Southeast 470 541 34,900  Level FlightAware ADS-B
Mon 06:18:27 AM 46.7300 11.0450 130° Southeast 468 539 34,900  Level FlightAware ADS-B
Mon 06:19:07 AM 46.6670 11.1500 131° Southeast 468 539 34,900  Level FlightAware ADS-B
Mon 06:19:57 AM 46.5960 11.2690 131° Southeast 466 536 34,900  Level FlightAware ADS-B
Mon 06:20:37 AM 46.5390 11.3640 131° Southeast 464 534 34,900  Level FlightAware ADS-B
Mon 06:21:12 AM 46.4900 11.4450 131° Southeast 464 534 34,900  Level FlightAware ADS-B
Mon 06:22:02 AM 46.4230 11.5540 132° Southeast 464 534 34,900  Level FlightAware ADS-B
Mon 06:22:57 AM 46.3410 11.6900 131° Southeast 462 532 34,900  Level FlightAware ADS-B
Mon 06:23:42 AM 46.2780 11.7930 131° Southeast 463 533 34,900  Level FlightAware ADS-B
Mon 06:24:22 AM 46.2200 11.8850 132° Southeast 463 533 34,900  Level FlightAware ADS-B
Mon 06:24:57 AM 46.1700 11.9660 132° Southeast 459 528 34,900  Level FlightAware ADS-B
Mon 06:25:47 AM 46.1000 12.0760 133° Southeast 463 533 34,900  Level FlightAware ADS-B
Mon 06:26:22 AM 46.0450 12.1620 133° Southeast 464 534 34,900  Level FlightAware ADS-B
Mon 06:27:12 AM 45.9750 12.2720 132° Southeast 464 534 34,900  Level FlightAware ADS-B
Mon 06:27:52 AM 45.9140 12.3690 132° Southeast 464 534 34,900  Level FlightAware ADS-B
Mon 06:28:42 AM 45.8400 12.4840 133° Southeast 463 533 34,900  Level FlightAware ADS-B
Mon 06:29:32 AM 45.7680 12.5960 133° Southeast 460 529 34,900  Level FlightAware ADS-B
Mon 06:30:12 AM 45.7090 12.6890 132° Southeast 459 528 34,900  Level FlightAware ADS-B
Mon 06:30:52 AM 45.6510 12.7780 133° Southeast 459 528 34,900  Level FlightAware ADS-B
Mon 06:31:37 AM 45.5860 12.8780 133° Southeast 458 527 34,900  Level FlightAware ADS-B
Mon 06:32:27 AM 45.5110 12.9920 133° Southeast 457 526 34,900  Level FlightAware ADS-B
Mon 06:33:17 AM 45.4390 13.1010 133° Southeast 452 520 34,900  Level FlightAware ADS-B
Mon 06:34:07 AM 45.3680 13.2090 133° Southeast 453 521 34,900  Level FlightAware ADS-B
Mon 06:34:42 AM 45.3170 13.2870 133° Southeast 453 521 34,900  Level FlightAware ADS-B
Mon 06:35:37 AM 45.2380 13.4070 133° Southeast 452 520 34,900  Level FlightAware ADS-B
Mon 06:36:32 AM 45.1610 13.5340 131° Southeast 459 528 34,900  Level FlightAware ADS-B
Mon 06:37:42 AM 45.0760 13.7010 126° Southeast 454 522 34,900  Level FlightAware ADS-B
Mon 06:38:37 AM 45.0070 13.8380 125° Southeast 453 521 34,900  Level FlightAware ADS-B
Mon 06:39:17 AM 44.9570 13.9370 125° Southeast 453 521 34,900  Level FlightAware ADS-B
Mon 06:40:12 AM 44.8930 14.0660 125° Southeast 451 519 34,900 55 Level FlightAware ADS-B
Mon 06:41:07 AM 44.8270 14.1950 126° Southeast 452 520 35,000  Climbing FlightAware ADS-B
Mon 06:42:07 AM 44.7480 14.3460 126° Southeast 450 518 34,900 -60 Descending FlightAware ADS-B
Mon 06:42:47 AM 44.7000 14.4380 126° Southeast 450 518 34,900  Level FlightAware ADS-B
Mon 06:43:47 AM 44.6240 14.5830 126° Southeast 448 516 34,900  Level FlightAware ADS-B
Mon 06:44:57 AM 44.5400 14.7420 127° Southeast 447 514 34,900  Level FlightAware ADS-B
Mon 06:45:47 AM 44.4740 14.8680 126° Southeast 447 514 34,900  Level FlightAware ADS-B
Mon 06:46:32 AM 44.4180 14.9720 127° Southeast 446 513 34,900  Level FlightAware ADS-B
Mon 06:47:17 AM 44.3690 15.0650 126° Southeast 446 513 34,900  Level FlightAware ADS-B
Mon 06:47:57 AM 44.3130 15.1650 128° Southeast 450 518 34,900  Level FlightAware ADS-B
Mon 06:48:37 AM 44.2600 15.2530 130° Southeast 450 518 34,900  Level FlightAware ADS-B
Mon 06:49:17 AM 44.2100 15.3360 130° Southeast 445 512 34,900  Level FlightAware ADS-B
Mon 06:50:02 AM 44.1480 15.4420 129° Southeast 445 512 34,900  Level FlightAware ADS-B
Mon 06:50:42 AM 44.0950 15.5330 129° Southeast 444 511 34,900  Level FlightAware ADS-B
Mon 06:51:27 AM 44.0370 15.6300 130° Southeast 449 517 34,900  Level FlightAware ADS-B
Mon 06:52:07 AM 43.9810 15.7220 130° Southeast 444 511 34,900  Level FlightAware ADS-B
Mon 06:52:52 AM 43.9210 15.8190 131° Southeast 451 519 34,900  Level FlightAware ADS-B
Mon 06:53:32 AM 43.8670 15.9050 131° Southeast 446 513 34,900  Level FlightAware ADS-B
Mon 06:54:12 AM 43.8100 15.9960 131° Southeast 447 514 34,900  Level FlightAware ADS-B
Mon 06:54:57 AM 43.7470 16.0910 133° Southeast 448 516 34,900  Level FlightAware ADS-B
Mon 06:55:37 AM 43.6880 16.1680 137° Southeast 446 513 34,900  Level FlightAware ADS-B
Mon 06:56:22 AM 43.6200 16.2570 137° Southeast 445 512 34,900  Level FlightAware ADS-B
Mon 06:57:02 AM 43.5590 16.3360 137° Southeast 445 512 34,900 75 Level FlightAware ADS-B
Mon 06:57:42 AM 43.5010 16.4100 137° Southeast 445 512 35,000  Climbing FlightAware ADS-B
Mon 06:58:27 AM 43.4340 16.4980 136° Southeast 445 512 34,900 -71 Descending FlightAware ADS-B
Mon 06:59:07 AM 43.3760 16.5740 136° Southeast 446 513 34,900  Level FlightAware ADS-B
Mon 06:59:47 AM 43.3120 16.6570 137° Southeast 448 516 34,900 71 Level FlightAware ADS-B
Mon 07:00:32 AM 43.2520 16.7540 130° Southeast 446 513 35,000  Climbing FlightAware ADS-B
Mon 07:01:12 AM 43.1990 16.8410 130° Southeast 453 521 34,900 -71 Descending FlightAware ADS-B
Mon 07:01:57 AM 43.1370 16.9410 130° Southeast 450 518 34,900  Level FlightAware ADS-B
Mon 07:02:37 AM 43.0800 17.0300 131° Southeast 459 528 34,900  Level FlightAware ADS-B
Mon 07:03:22 AM 43.0170 17.1280 131° Southeast 461 531 34,900  Level FlightAware ADS-B
Mon 07:04:02 AM 42.9610 17.2150 131° Southeast 462 532 34,900  Level FlightAware ADS-B
Mon 07:04:42 AM 42.9050 17.3030 131° Southeast 462 532 34,900  Level FlightAware ADS-B
Mon 07:05:27 AM 42.8400 17.4030 132° Southeast 464 534 34,900  Level FlightAware ADS-B
Mon 07:06:07 AM 42.7850 17.4890 131° Southeast 467 537 34,900  Level FlightAware ADS-B
Mon 07:06:52 AM 42.7170 17.5960 131° Southeast 468 539 34,900  Level FlightAware ADS-B
Mon 07:07:32 AM 42.6610 17.6830 131° Southeast 469 540 34,900  Level FlightAware ADS-B
Mon 07:08:12 AM 42.6060 17.7680 131° Southeast 469 540 34,900  Level FlightAware ADS-B
Mon 07:08:57 AM 42.5380 17.8730 131° Southeast 469 540 34,900  Level FlightAware ADS-B
Mon 07:09:37 AM 42.4830 17.9570 132° Southeast 469 540 34,900  Level FlightAware ADS-B
Mon 07:10:32 AM 42.4020 18.0800 132° Southeast 470 541 34,900  Level FlightAware ADS-B
Mon 07:11:17 AM 42.3340 18.1830 132° Southeast 472 543 34,900  Level FlightAware ADS-B
Mon 07:11:57 AM 42.2780 18.2680 132° Southeast 473 544 34,900  Level FlightAware ADS-B
Mon 07:12:37 AM 42.2210 18.3540 132° Southeast 475 547 34,900  Level FlightAware ADS-B
Mon 07:13:22 AM 42.1540 18.4550 132° Southeast 478 550 34,900  Level FlightAware ADS-B
Mon 07:14:02 AM 42.0940 18.5460 132° Southeast 480 552 34,900  Level FlightAware ADS-B
Mon 07:14:42 AM 42.0360 18.6320 132° Southeast 482 555 34,900  Level FlightAware ADS-B
Mon 07:15:27 AM 41.9660 18.7360 132° Southeast 483 556 34,900  Level FlightAware ADS-B
Mon 07:16:12 AM 41.9000 18.8340 132° Southeast 485 558 34,900  Level FlightAware ADS-B
Mon 07:16:52 AM 41.8420 18.9210 132° Southeast 485 558 34,900  Level FlightAware ADS-B
Mon 07:17:32 AM 41.7820 19.0090 132° Southeast 484 557 34,900  Level FlightAware ADS-B
Mon 07:18:17 AM 41.7090 19.1160 132° Southeast 484 557 34,900  Level FlightAware ADS-B
Mon 07:18:52 AM 41.6600 19.1880 132° Southeast 483 556 34,900  Level FlightAware ADS-B
Mon 07:19:42 AM 41.5830 19.3000 133° Southeast 485 558 34,900  Level FlightAware ADS-B
Mon 07:20:22 AM 41.5220 19.3880 133° Southeast 486 559 34,900  Level FlightAware ADS-B
Mon 07:21:02 AM 41.4610 19.4770 132° Southeast 488 562 34,900  Level FlightAware ADS-B
Mon 07:21:47 AM 41.3900 19.5800 133° Southeast 489 563 34,900  Level FlightAware ADS-B
Mon 07:22:27 AM 41.3310 19.6660 132° Southeast 487 560 34,900  Level FlightAware ADS-B
Mon 07:23:12 AM 41.2620 19.7650 133° Southeast 487 560 34,900  Level FlightAware ADS-B
Mon 07:24:07 AM 41.1770 19.8870 133° Southeast 486 559 34,900  Level FlightAware ADS-B
Mon 07:24:47 AM 41.1170 19.9730 133° Southeast 486 559 34,900  Level FlightAware ADS-B
Mon 07:25:32 AM 41.0480 20.0710 133° Southeast 488 562 34,900  Level FlightAware ADS-B
Mon 07:26:02 AM 41.0010 20.1380 133° Southeast 491 565 34,900  Level FlightAware ADS-B
Mon 07:26:52 AM 40.9240 20.2480 133° Southeast 492 566 34,900  Level FlightAware ADS-B
Mon 07:27:37 AM 40.8520 20.3480 134° Southeast 493 567 34,900  Level FlightAware ADS-B
Mon 07:28:17 AM 40.7920 20.4330 133° Southeast 493 567 34,900  Level FlightAware ADS-B
Mon 07:29:12 AM 40.7100 20.5470 133° Southeast 495 570 34,900  Level FlightAware ADS-B
Mon 07:29:57 AM 40.6340 20.6530 133° Southeast 496 571 34,900  Level FlightAware ADS-B
Mon 07:30:37 AM 40.5710 20.7410 133° Southeast 496 571 34,900  Level FlightAware ADS-B
Mon 07:31:17 AM 40.5080 20.8290 133° Southeast 496 571 34,900  Level FlightAware ADS-B
Mon 07:32:02 AM 40.4360 20.9270 134° Southeast 495 570 34,900  Level FlightAware ADS-B
Mon 07:32:42 AM 40.3740 21.0120 134° Southeast 495 570 34,900  Level FlightAware ADS-B
Mon 07:33:27 AM 40.3030 21.1100 134° Southeast 491 565 34,900 71 Level FlightAware ADS-B
Mon 07:34:07 AM 40.2380 21.1980 134° Southeast 491 565 35,000  Climbing FlightAware ADS-B
Mon 07:34:47 AM 40.1750 21.2840 134° Southeast 492 566 34,900 -75 Descending FlightAware ADS-B
Mon 07:35:27 AM 40.1100 21.3720 134° Southeast 492 566 34,900  Level FlightAware ADS-B
Mon 07:36:17 AM 40.0310 21.4800 134° Southeast 491 565 34,900  Level FlightAware ADS-B
Mon 07:36:52 AM 39.9740 21.5550 135° Southeast 496 571 34,900  Level FlightAware ADS-B
Mon 07:37:42 AM 39.8990 21.6700 130° Southeast 498 573 34,900  Level FlightAware ADS-B
Mon 07:38:22 AM 39.8440 21.7660 127° Southeast 499 574 34,900  Level FlightAware ADS-B
Mon 07:39:02 AM 39.7900 21.8630 126° Southeast 501 577 34,900  Level FlightAware ADS-B
Mon 07:39:47 AM 39.7270 21.9750 126° Southeast 500 575 34,900 450 Level FlightAware ADS-B
Mon 07:40:22 AM 39.6820 22.0540 126° Southeast 504 580 35,500 1,059 Climbing FlightAware ADS-B
Mon 07:41:12 AM 39.6070 22.1840 127° Southeast 517 595 36,400 933 Climbing FlightAware ADS-B
Mon 07:41:52 AM 39.5500 22.2850 126° Southeast 517 595 36,900 375 Climbing FlightAware ADS-B
Mon 07:42:32 AM 39.4930 22.3850 126° Southeast 520 598 36,900  Level FlightAware ADS-B
Mon 07:43:07 AM 39.4410 22.4740 127° Southeast 521 600 36,900  Level FlightAware ADS-B
Mon 07:43:47 AM 39.3830 22.5750 127° Southeast 521 600 36,900  Level FlightAware ADS-B
Mon 07:44:27 AM 39.3250 22.6760 127° Southeast 522 601 36,900  Level FlightAware ADS-B
Mon 07:45:07 AM 39.2660 22.7770 127° Southeast 524 603 36,900  Level FlightAware ADS-B
Mon 07:45:52 AM 39.2000 22.8900 127° Southeast 532 612 36,900  Level FlightAware ADS-B
Mon 07:46:27 AM 39.1510 22.9730 127° Southeast 534 615 36,900  Level FlightAware ADS-B
Mon 07:47:17 AM 39.0740 23.1040 127° Southeast 536 617 36,900  Level FlightAware ADS-B
Mon 07:47:57 AM 39.0130 23.2070 127° Southeast 538 619 36,900  Level FlightAware ADS-B
Mon 07:48:42 AM 38.9450 23.3210 127° Southeast 539 620 36,900  Level FlightAware ADS-B
Mon 07:49:22 AM 38.8840 23.4240 127° Southeast 539 620 36,900  Level FlightAware ADS-B
Mon 07:50:02 AM 38.8230 23.5270 127° Southeast 538 619 36,900  Level FlightAware ADS-B
Mon 07:50:47 AM 38.7530 23.6430 128° Southeast 538 619 36,900  Level FlightAware ADS-B
Mon 07:51:27 AM 38.6920 23.7440 128° Southeast 538 619 36,900  Level FlightAware ADS-B
Mon 07:52:12 AM 38.6260 23.8550 127° Southeast 538 619 36,900  Level FlightAware ADS-B
Mon 07:52:52 AM 38.5650 23.9570 127° Southeast 537 618 36,900  Level FlightAware ADS-B
Mon 07:53:37 AM 38.4970 24.0710 127° Southeast 538 619 36,900  Level FlightAware ADS-B
Mon 07:54:17 AM 38.4350 24.1740 128° Southeast 538 619 36,900  Level FlightAware ADS-B
Mon 07:54:57 AM 38.3740 24.2750 128° Southeast 538 619 36,900  Level FlightAware ADS-B
Mon 07:55:42 AM 38.3090 24.3840 127° Southeast 537 618 36,900  Level FlightAware ADS-B
Mon 07:56:22 AM 38.2480 24.4850 128° Southeast 537 618 36,900  Level FlightAware ADS-B
Mon 07:57:07 AM 38.1780 24.6000 128° Southeast 537 618 36,900  Level FlightAware ADS-B
Mon 07:57:47 AM 38.1170 24.7000 128° Southeast 538 619 36,900  Level FlightAware ADS-B
Mon 07:58:27 AM 38.0550 24.8000 128° Southeast 538 619 36,900  Level FlightAware ADS-B
Mon 07:59:12 AM 37.9880 24.9080 128° Southeast 539 620 36,900  Level FlightAware ADS-B
Mon 07:59:52 AM 37.9260 25.0080 128° Southeast 540 621 36,900  Level FlightAware ADS-B
Mon 08:00:37 AM 37.8570 25.1200 128° Southeast 541 623 36,900  Level FlightAware ADS-B
Mon 08:01:17 AM 37.7920 25.2230 129° Southeast 541 623 36,900  Level FlightAware ADS-B
Mon 08:01:57 AM 37.7310 25.3210 128° Southeast 541 623 36,900  Level FlightAware ADS-B
Mon 08:02:42 AM 37.6630 25.4290 128° Southeast 543 625 36,900  Level FlightAware ADS-B
Mon 08:03:22 AM 37.6010 25.5290 128° Southeast 543 625 36,900  Level FlightAware ADS-B
Mon 08:04:07 AM 37.5280 25.6440 129° Southeast 544 626 36,900  Level FlightAware ADS-B
Mon 08:04:47 AM 37.4640 25.7440 129° Southeast 545 627 36,900  Level FlightAware ADS-B
Mon 08:05:27 AM 37.4030 25.8420 128° Southeast 545 627 36,900  Level FlightAware ADS-B
Mon 08:06:12 AM 37.3340 25.9510 129° Southeast 546 628 36,900  Level FlightAware ADS-B
Mon 08:06:52 AM 37.2690 26.0510 129° Southeast 548 631 36,900  Level FlightAware ADS-B
Mon 08:07:32 AM 37.2070 26.1490 128° Southeast 547 629 36,900  Level FlightAware ADS-B
Mon 08:08:17 AM 37.1370 26.2590 129° Southeast 547 629 36,900  Level FlightAware ADS-B
Mon 08:08:57 AM 37.0700 26.3620 129° Southeast 547 629 36,900  Level FlightAware ADS-B
Mon 08:09:42 AM 37.0000 26.4700 129° Southeast 548 631 36,900  Level FlightAware ADS-B
Mon 08:10:17 AM 36.9480 26.5520 128° Southeast 549 632 36,900  Level FlightAware ADS-B
Mon 08:11:07 AM 36.8670 26.6770 129° Southeast 549 632 36,900  Level FlightAware ADS-B
Mon 08:11:47 AM 36.8030 26.7760 129° Southeast 547 629 36,900  Level FlightAware ADS-B
Mon 08:12:27 AM 36.7360 26.8800 129° Southeast 547 629 36,900  Level FlightAware ADS-B
Mon 08:13:02 AM 36.6870 26.9550 129° Southeast 548 631 36,900  Level FlightAware ADS-B
Mon 08:13:47 AM 36.6170 27.0630 129° Southeast 548 631 36,900  Level FlightAware ADS-B
Mon 08:14:27 AM 36.5630 27.1460 129° Southeast 548 631 36,900  Level FlightAware ADS-B
Mon 08:15:17 AM 36.4660 27.2930 129° Southeast 552 635 36,900  Level FlightAware ADS-B
Mon 08:15:57 AM 36.3980 27.3960 129° Southeast 554 638 36,900  Level FlightAware ADS-B
Mon 08:16:52 AM 36.3140 27.5230 129° Southeast 555 639 36,900  Level FlightAware ADS-B
Mon 08:17:32 AM 36.2590 27.6070 129° Southeast 555 639 36,900  Level FlightAware ADS-B
Mon 08:18:12 AM 36.2040 27.6910 129° Southeast 555 639 36,900  Level FlightAware ADS-B
Mon 08:19:02 AM 36.1360 27.7960 129° Southeast 555 639 36,900  Level FlightAware ADS-B
Mon 08:19:42 AM 36.0810 27.8800 129° Southeast 555 639 36,900  Level FlightAware ADS-B
Mon 08:20:22 AM 35.9710 28.0360 131° Southeast 555 639 36,900  Level FlightAware ADS-B
Mon 08:21:07 AM 35.8940 28.1480 130° Southeast 556 640 36,900  Level FlightAware ADS-B
Mon 08:21:47 AM 35.8220 28.2540 130° Southeast 558 642 36,900  Level FlightAware ADS-B
Mon 08:22:32 AM 35.7490 28.3620 130° Southeast 558 642 36,900  Level FlightAware ADS-B
Mon 08:23:12 AM 35.6840 28.4570 130° Southeast 557 641 36,900  Level FlightAware ADS-B
Mon 08:23:52 AM 35.6180 28.5550 130° Southeast 558 642 36,900  Level FlightAware ADS-B
Mon 08:24:37 AM 35.5410 28.6680 130° Southeast 559 643 36,900  Level FlightAware ADS-B
Mon 08:25:17 AM 35.4740 28.7650 130° Southeast 559 643 36,900  Level FlightAware ADS-B
Mon 08:26:02 AM 35.4000 28.8730 130° Southeast 558 642 36,900  Level FlightAware ADS-B
Mon 08:26:42 AM 35.3350 28.9660 131° Southeast 554 638 36,900  Level FlightAware ADS-B
Mon 08:27:27 AM 35.2600 29.0730 131° Southeast 553 636 36,900  Level FlightAware ADS-B
Mon 08:28:07 AM 35.1920 29.1720 130° Southeast 554 638 36,900  Level FlightAware ADS-B
Mon 08:29:52 AM 35.0200 29.4200 122° Southeast 556 640 36,900  Level FlightAware ADS-B
Mon 08:30:00 AM 35.0409 29.4643 122° Southeast  Level Estimated
Mon 08:30:42 AM 34.9450 29.5290 130° Southeast 556 640 36,900  Level FlightAware ADS-B
Mon 08:32:02 AM 34.7970 29.7340 131° Southeast 554 638 36,900  Level FlightAware ADS-B
Mon 08:33:02 AM 34.6940 29.8780 131° Southeast 560 644 36,900  Level FlightAware ADS-B
Mon 08:33:52 AM 34.6150 29.9900 131° Southeast 554 638 36,900  Level FlightAware ADS-B
Mon 08:34:32 AM 34.5620 30.0990 121° Southeast 567 652 36,900  Level FlightAware ADS-B
Mon 08:36:02 AM 34.4460 30.3500 119° Southeast 563 648 36,900  Level FlightAware ADS-B
Mon 08:36:42 AM 34.3930 30.4600 120° Southeast 567 652 36,900  Level FlightAware ADS-B
Mon 08:37:27 AM 34.3330 30.5820 121° Southeast 567 652 36,900  Level FlightAware ADS-B
Mon 08:38:02 AM 34.2850 30.6790 121° Southeast 567 652 36,900  Level FlightAware ADS-B
Mon 08:38:52 AM 34.2180 30.8150 121° Southeast 568 654 36,900  Level FlightAware ADS-B
Mon 08:39:47 AM 34.1440 30.9630 121° Southeast 569 655 36,900  Level FlightAware ADS-B
Mon 08:40:27 AM 34.0890 31.0750 121° Southeast 570 656 36,900  Level FlightAware ADS-B
Mon 08:41:12 AM 34.0290 31.1960 121° Southeast 570 656 36,900  Level FlightAware ADS-B
Mon 08:41:52 AM 33.9750 31.3070 120° Southeast 571 657 36,900  Level FlightAware ADS-B
Mon 08:42:32 AM 33.9190 31.4180 121° Southeast 573 659 36,900  Level FlightAware ADS-B
Mon 08:43:12 AM 33.8640 31.5300 121° Southeast 573 659 36,900  Level FlightAware ADS-B
Mon 08:43:57 AM 33.8020 31.6540 121° Southeast 570 656 36,900  Level FlightAware ADS-B
Mon 08:44:42 AM 33.7400 31.7780 121° Southeast 571 657 36,900  Level FlightAware ADS-B
Mon 08:45:22 AM 33.6840 31.8890 121° Southeast 571 657 36,900  Level FlightAware ADS-B
Mon 08:46:32 AM 33.5870 32.0810 121° Southeast 573 659 36,900  Level FlightAware ADS-B
Mon 08:47:42 AM 33.4890 32.2720 122° Southeast 574 661 36,900  Level FlightAware ADS-B
Mon 08:48:47 AM 33.3990 32.4490 121° Southeast 580 667 36,900  Level FlightAware ADS-B
Mon 08:49:27 AM 33.3480 32.5470 122° Southeast 580 667 36,900 -225 Level FlightAware ADS-B
Mon 08:50:07 AM 33.2920 32.6570 121° Southeast 569 655 36,600 -1,950 Descending FlightAware ADS-B
Mon 08:50:47 AM 33.2360 32.7640 122° Southeast 584 672 34,300 -2,829 Descending FlightAware ADS-B
Mon 08:51:17 AM 33.1960 32.8410 122° Southeast 569 655 33,300 -2,775 Descending FlightAware ADS-B
Mon 08:52:07 AM 33.1200 32.9870 122° Southeast 559 643 30,600 -2,400 Descending FlightAware ADS-B
Mon 08:52:52 AM 33.0630 33.0980 121° Southeast 558 642 29,500 -776 Descending FlightAware ADS-B
Mon 08:53:32 AM 33.0180 33.1880 121° Southeast 558 642 29,500 -3,150 Level FlightAware ADS-B
Mon 08:54:12 AM 32.9570 33.2990 123° Southeast 515 593 25,300 -4,275 Descending FlightAware ADS-B
Mon 08:54:52 AM 32.9060 33.3950 122° Southeast 498 573 23,800 -1,694 Descending FlightAware ADS-B
Mon 08:55:37 AM 32.8550 33.4920 122° Southeast 453 521 22,900 -1,933 Descending FlightAware ADS-B
Mon 08:56:22 AM 32.8030 33.5900 122° Southeast 427 491 20,900 -2,682 Descending FlightAware ADS-B
Mon 08:57:02 AM 32.7630 33.6680 121° Southeast 412 474 19,100 -2,175 Descending FlightAware ADS-B
Mon 08:57:42 AM 32.7250 33.7390 122° Southeast 402 463 18,000 -1,694 Descending FlightAware ADS-B
Mon 08:58:27 AM 32.6780 33.8260 123° Southeast 392 451 16,700 -1,725 Descending FlightAware ADS-B
Mon 08:59:02 AM 32.6440 33.8910 122° Southeast 385 443 15,700 -1,624 Descending FlightAware ADS-B
Mon 08:59:52 AM 32.5970 33.9770 123° Southeast 373 429 14,400 -1,533 Descending FlightAware ADS-B
Mon 09:00:32 AM 32.5600 34.0470 122° Southeast 362 417 13,400 -1,553 Descending FlightAware ADS-B
Mon 09:01:17 AM 32.5200 34.1220 122° Southeast 355 409 12,200 -1,624 Descending FlightAware ADS-B
Mon 09:01:57 AM 32.4820 34.1850 126° Southeast 346 398 11,100 -1,800 Descending FlightAware ADS-B
Mon 09:02:37 AM 32.4400 34.2350 135° Southeast 335 386 9,800 -1,029 Descending FlightAware ADS-B
Mon 09:03:07 AM 32.4060 34.2740 136° Southeast 297 342 9,900 -218 Climbing FlightAware ADS-B
Mon 09:03:32 AM 32.3830 34.3010 135° Southeast 289 333 9,600 -1,050 Descending FlightAware ADS-B
Mon 09:03:47 AM 32.3670 34.3190 136° Southeast 289 333 9,200 -1,200 Descending FlightAware ADS-B
Mon 09:04:17 AM 32.3430 34.3470 135° Southeast 285 328 8,700 -545 Descending FlightAware ADS-B
Mon 09:04:42 AM 32.3200 34.3750 134° Southeast 285 328 8,700  Level FlightAware ADS-B
Mon 09:05:12 AM 32.2960 34.4030 135° Southeast 285 328 8,700  Level FlightAware ADS-B
Mon 09:05:42 AM 32.2720 34.4310 135° Southeast 285 328 8,700  Level FlightAware ADS-B
Mon 09:05:52 AM 32.2650 34.4400 133° Southeast 285 328 8,700  Level FlightAware ADS-B
Mon 09:06:12 AM 32.2490 34.4590 135° Southeast 285 328 8,700  Level FlightAware ADS-B
Mon 09:08:00 AM 32.0806 34.7069 115° Southeast  Level FlightAware Approximate
Mon 09:09:00 AM 32.0046 34.8590 125° Southeast  Level FlightAware Approximate
Mon 09:10:00 AM 32.0000 34.8667 125° Southeast  Level FlightAware Approximate
Mon 09:11:00 AM 32.0095 34.8769 125° Southeast  Level Estimated
Mon 09:12:00 AM 32.0095 34.8769 125° Southeast  Level Estimated
Mon 09:13:00 AM 32.0095 34.8769 125° Southeast  Level Estimated
Mon 09:14:00 AM 32.0095 34.8769 125° Southeast  Level Estimated
Mon 09:15:00 AM 32.0095 34.8769 125° Southeast  Level Estimated
Mon 09:16:00 AM 32.0095 34.8769 125° Southeast  Level Estimated
Mon 09:17:00 AM 32.0095 34.8769 125° Southeast  Level Estimated

Login

Don't have an account? Register now (free) for customized features, flight alerts, and more!